<?xml version="1.0" encoding="UTF-8" standalone="no" ?>
<gpx xmlns="http://www.topografix.com/GPX/1/1" xmlns:xsi="http://www.w3.org/2001/XMLSchema-instance" xsi:schemaLocation="http://www.topografix.com/GPX/1/1 http://www.topografix.com/GPX/1/1/gpx.xsd" version="1.1" creator="VisuGPX - https://www.visugpx.com">
  <metadata>
    <name>knokke 28 janvier</name>
    <desc><![CDATA[Encore une belle à côte le ZWIN ,Léger soleil ,plus 1300 personnes ,belle organisation.]]></desc>
  </metadata>
  <trk>
    <name><![CDATA[KNOKKE1-28 14:31:25]]></name>
    <trkseg>
      <trkpt lat="51.33723" lon="3.29416">
        <ele>-158.48</ele>
        <time>2018-01-28T09:49:57Z</time>
      </trkpt>
      <trkpt lat="51.3371" lon="3.29423">
        <ele>-153.19</ele>
        <time>2018-01-28T09:50:04Z</time>
      </trkpt>
      <trkpt lat="51.3371" lon="3.29423">
        <ele>-147.43</ele>
        <time>2018-01-28T09:50:05Z</time>
      </trkpt>
      <trkpt lat="51.33709" lon="3.29423">
        <ele>-142.62</ele>
        <time>2018-01-28T09:50:06Z</time>
      </trkpt>
      <trkpt lat="51.33708" lon="3.29422">
        <ele>-137.33</ele>
        <time>2018-01-28T09:50:07Z</time>
      </trkpt>
      <trkpt lat="51.33707" lon="3.29422">
        <ele>-132.52</ele>
        <time>2018-01-28T09:50:08Z</time>
      </trkpt>
      <trkpt lat="51.33706" lon="3.29422">
        <ele>-129.16</ele>
        <time>2018-01-28T09:50:09Z</time>
      </trkpt>
      <trkpt lat="51.33704" lon="3.29422">
        <ele>-124.83</ele>
        <time>2018-01-28T09:50:10Z</time>
      </trkpt>
      <trkpt lat="51.33703" lon="3.29422">
        <ele>-120.51</ele>
        <time>2018-01-28T09:50:11Z</time>
      </trkpt>
      <trkpt lat="51.33702" lon="3.29422">
        <ele>-116.18</ele>
        <time>2018-01-28T09:50:12Z</time>
      </trkpt>
      <trkpt lat="51.33701" lon="3.29422">
        <ele>-112.34</ele>
        <time>2018-01-28T09:50:13Z</time>
      </trkpt>
      <trkpt lat="51.337" lon="3.29422">
        <ele>-108.49</ele>
        <time>2018-01-28T09:50:14Z</time>
      </trkpt>
      <trkpt lat="51.33699" lon="3.29422">
        <ele>-104.65</ele>
        <time>2018-01-28T09:50:15Z</time>
      </trkpt>
      <trkpt lat="51.33697" lon="3.29421">
        <ele>-101.28</ele>
        <time>2018-01-28T09:50:16Z</time>
      </trkpt>
      <trkpt lat="51.33696" lon="3.29422">
        <ele>-97.92</ele>
        <time>2018-01-28T09:50:17Z</time>
      </trkpt>
      <trkpt lat="51.33695" lon="3.29422">
        <ele>-94.55</ele>
        <time>2018-01-28T09:50:18Z</time>
      </trkpt>
      <trkpt lat="51.33694" lon="3.29421">
        <ele>-91.19</ele>
        <time>2018-01-28T09:50:19Z</time>
      </trkpt>
      <trkpt lat="51.33693" lon="3.29421">
        <ele>-88.3</ele>
        <time>2018-01-28T09:50:20Z</time>
      </trkpt>
      <trkpt lat="51.33692" lon="3.29421">
        <ele>-82.54</ele>
        <time>2018-01-28T09:50:21Z</time>
      </trkpt>
      <trkpt lat="51.33691" lon="3.2942">
        <ele>-82.54</ele>
        <time>2018-01-28T09:50:22Z</time>
      </trkpt>
      <trkpt lat="51.33689" lon="3.29421">
        <ele>-76.77</ele>
        <time>2018-01-28T09:50:24Z</time>
      </trkpt>
      <trkpt lat="51.33686" lon="3.29421">
        <ele>-71.48</ele>
        <time>2018-01-28T09:50:26Z</time>
      </trkpt>
      <trkpt lat="51.33685" lon="3.29421">
        <ele>-69.08</ele>
        <time>2018-01-28T09:50:27Z</time>
      </trkpt>
      <trkpt lat="51.33684" lon="3.29426">
        <ele>-62.35</ele>
        <time>2018-01-28T09:50:30Z</time>
      </trkpt>
      <trkpt lat="51.33685" lon="3.29429">
        <ele>-58.02</ele>
        <time>2018-01-28T09:50:32Z</time>
      </trkpt>
      <trkpt lat="51.33685" lon="3.29432">
        <ele>-54.18</ele>
        <time>2018-01-28T09:50:34Z</time>
      </trkpt>
      <trkpt lat="51.33686" lon="3.29436">
        <ele>-50.81</ele>
        <time>2018-01-28T09:50:36Z</time>
      </trkpt>
      <trkpt lat="51.33687" lon="3.29439">
        <ele>-47.93</ele>
        <time>2018-01-28T09:50:38Z</time>
      </trkpt>
      <trkpt lat="51.33689" lon="3.29441">
        <ele>-45.04</ele>
        <time>2018-01-28T09:50:40Z</time>
      </trkpt>
      <trkpt lat="51.33692" lon="3.29445">
        <ele>-40.24</ele>
        <time>2018-01-28T09:50:44Z</time>
      </trkpt>
      <trkpt lat="51.33693" lon="3.29446">
        <ele>-39.28</ele>
        <time>2018-01-28T09:50:45Z</time>
      </trkpt>
      <trkpt lat="51.33694" lon="3.29451">
        <ele>-36.39</ele>
        <time>2018-01-28T09:50:48Z</time>
      </trkpt>
      <trkpt lat="51.33696" lon="3.29462">
        <ele>-33.03</ele>
        <time>2018-01-28T09:50:52Z</time>
      </trkpt>
      <trkpt lat="51.33698" lon="3.2947">
        <ele>-30.14</ele>
        <time>2018-01-28T09:50:56Z</time>
      </trkpt>
      <trkpt lat="51.33704" lon="3.29475">
        <ele>-26.3</ele>
        <time>2018-01-28T09:51:01Z</time>
      </trkpt>
      <trkpt lat="51.33705" lon="3.29478">
        <ele>-25.34</ele>
        <time>2018-01-28T09:51:03Z</time>
      </trkpt>
      <trkpt lat="51.33711" lon="3.29494">
        <ele>-21.01</ele>
        <time>2018-01-28T09:51:10Z</time>
      </trkpt>
      <trkpt lat="51.33714" lon="3.29498">
        <ele>-19.57</ele>
        <time>2018-01-28T09:51:13Z</time>
      </trkpt>
      <trkpt lat="51.33721" lon="3.29509">
        <ele>-16.21</ele>
        <time>2018-01-28T09:51:20Z</time>
      </trkpt>
      <trkpt lat="51.33727" lon="3.29523">
        <ele>-13.32</ele>
        <time>2018-01-28T09:51:28Z</time>
      </trkpt>
      <trkpt lat="51.33733" lon="3.29538">
        <ele>-9.96</ele>
        <time>2018-01-28T09:51:38Z</time>
      </trkpt>
      <trkpt lat="51.33737" lon="3.2955">
        <ele>-7.07</ele>
        <time>2018-01-28T09:51:47Z</time>
      </trkpt>
      <trkpt lat="51.33741" lon="3.29553">
        <ele>-6.59</ele>
        <time>2018-01-28T09:51:53Z</time>
      </trkpt>
      <trkpt lat="51.33743" lon="3.29571">
        <ele>-4.67</ele>
        <time>2018-01-28T09:52:04Z</time>
      </trkpt>
      <trkpt lat="51.33744" lon="3.29612">
        <ele>-4.67</ele>
        <time>2018-01-28T09:52:18Z</time>
      </trkpt>
      <trkpt lat="51.33751" lon="3.2963">
        <ele>-4.67</ele>
        <time>2018-01-28T09:52:31Z</time>
      </trkpt>
      <trkpt lat="51.33753" lon="3.29644">
        <ele>-4.67</ele>
        <time>2018-01-28T09:52:39Z</time>
      </trkpt>
      <trkpt lat="51.33762" lon="3.29667">
        <ele>-4.67</ele>
        <time>2018-01-28T09:52:54Z</time>
      </trkpt>
      <trkpt lat="51.33758" lon="3.29685">
        <ele>-3.71</ele>
        <time>2018-01-28T09:52:59Z</time>
      </trkpt>
      <trkpt lat="51.33764" lon="3.29698">
        <ele>-3.71</ele>
        <time>2018-01-28T09:53:10Z</time>
      </trkpt>
      <trkpt lat="51.33769" lon="3.2971">
        <ele>-3.71</ele>
        <time>2018-01-28T09:53:19Z</time>
      </trkpt>
      <trkpt lat="51.33773" lon="3.29714">
        <ele>-3.71</ele>
        <time>2018-01-28T09:53:25Z</time>
      </trkpt>
      <trkpt lat="51.33776" lon="3.2975">
        <ele>-4.19</ele>
        <time>2018-01-28T09:53:38Z</time>
      </trkpt>
      <trkpt lat="51.33777" lon="3.29757">
        <ele>-4.19</ele>
        <time>2018-01-28T09:53:42Z</time>
      </trkpt>
      <trkpt lat="51.3378" lon="3.29772">
        <ele>-4.19</ele>
        <time>2018-01-28T09:53:50Z</time>
      </trkpt>
      <trkpt lat="51.33783" lon="3.29783">
        <ele>-4.19</ele>
        <time>2018-01-28T09:53:57Z</time>
      </trkpt>
      <trkpt lat="51.33784" lon="3.29786">
        <ele>-4.19</ele>
        <time>2018-01-28T09:53:59Z</time>
      </trkpt>
      <trkpt lat="51.33784" lon="3.29802">
        <ele>-4.19</ele>
        <time>2018-01-28T09:54:07Z</time>
      </trkpt>
      <trkpt lat="51.33784" lon="3.29808">
        <ele>-4.19</ele>
        <time>2018-01-28T09:54:09Z</time>
      </trkpt>
      <trkpt lat="51.33785" lon="3.29844">
        <ele>-4.19</ele>
        <time>2018-01-28T09:54:22Z</time>
      </trkpt>
      <trkpt lat="51.33786" lon="3.29857">
        <ele>-4.19</ele>
        <time>2018-01-28T09:54:28Z</time>
      </trkpt>
      <trkpt lat="51.33792" lon="3.29876">
        <ele>-4.19</ele>
        <time>2018-01-28T09:54:39Z</time>
      </trkpt>
      <trkpt lat="51.33795" lon="3.29904">
        <ele>-4.19</ele>
        <time>2018-01-28T09:54:52Z</time>
      </trkpt>
      <trkpt lat="51.33798" lon="3.2993">
        <ele>-4.19</ele>
        <time>2018-01-28T09:55:05Z</time>
      </trkpt>
      <trkpt lat="51.33798" lon="3.29933">
        <ele>-4.19</ele>
        <time>2018-01-28T09:55:06Z</time>
      </trkpt>
      <trkpt lat="51.33798" lon="3.29936">
        <ele>-4.19</ele>
        <time>2018-01-28T09:55:07Z</time>
      </trkpt>
      <trkpt lat="51.33801" lon="3.2996">
        <ele>-4.19</ele>
        <time>2018-01-28T09:55:18Z</time>
      </trkpt>
      <trkpt lat="51.33802" lon="3.29986">
        <ele>-4.19</ele>
        <time>2018-01-28T09:55:29Z</time>
      </trkpt>
      <trkpt lat="51.33806" lon="3.30002">
        <ele>-4.19</ele>
        <time>2018-01-28T09:55:39Z</time>
      </trkpt>
      <trkpt lat="51.33809" lon="3.30024">
        <ele>-4.19</ele>
        <time>2018-01-28T09:55:50Z</time>
      </trkpt>
      <trkpt lat="51.33811" lon="3.30026">
        <ele>-4.19</ele>
        <time>2018-01-28T09:55:52Z</time>
      </trkpt>
      <trkpt lat="51.33811" lon="3.30036">
        <ele>-4.19</ele>
        <time>2018-01-28T09:55:57Z</time>
      </trkpt>
      <trkpt lat="51.33811" lon="3.30041">
        <ele>-4.19</ele>
        <time>2018-01-28T09:55:59Z</time>
      </trkpt>
      <trkpt lat="51.33812" lon="3.30048">
        <ele>-4.19</ele>
        <time>2018-01-28T09:56:02Z</time>
      </trkpt>
      <trkpt lat="51.33815" lon="3.30066">
        <ele>-4.19</ele>
        <time>2018-01-28T09:56:11Z</time>
      </trkpt>
      <trkpt lat="51.3382" lon="3.30092">
        <ele>-4.19</ele>
        <time>2018-01-28T09:56:24Z</time>
      </trkpt>
      <trkpt lat="51.33822" lon="3.30103">
        <ele>-4.19</ele>
        <time>2018-01-28T09:56:30Z</time>
      </trkpt>
      <trkpt lat="51.33821" lon="3.30115">
        <ele>-4.19</ele>
        <time>2018-01-28T09:56:35Z</time>
      </trkpt>
      <trkpt lat="51.33825" lon="3.30134">
        <ele>-5.15</ele>
        <time>2018-01-28T09:56:47Z</time>
      </trkpt>
      <trkpt lat="51.33828" lon="3.30156">
        <ele>-5.15</ele>
        <time>2018-01-28T09:56:59Z</time>
      </trkpt>
      <trkpt lat="51.33833" lon="3.3017">
        <ele>-5.15</ele>
        <time>2018-01-28T09:57:09Z</time>
      </trkpt>
      <trkpt lat="51.33837" lon="3.30196">
        <ele>-5.63</ele>
        <time>2018-01-28T09:57:22Z</time>
      </trkpt>
      <trkpt lat="51.33839" lon="3.30209">
        <ele>-5.63</ele>
        <time>2018-01-28T09:57:28Z</time>
      </trkpt>
      <trkpt lat="51.33843" lon="3.30232">
        <ele>-5.63</ele>
        <time>2018-01-28T09:57:40Z</time>
      </trkpt>
      <trkpt lat="51.33844" lon="3.30238">
        <ele>-5.63</ele>
        <time>2018-01-28T09:57:43Z</time>
      </trkpt>
      <trkpt lat="51.33846" lon="3.3025">
        <ele>-5.63</ele>
        <time>2018-01-28T09:57:48Z</time>
      </trkpt>
      <trkpt lat="51.33847" lon="3.30273">
        <ele>-5.63</ele>
        <time>2018-01-28T09:57:59Z</time>
      </trkpt>
      <trkpt lat="51.3385" lon="3.30301">
        <ele>-5.63</ele>
        <time>2018-01-28T09:58:12Z</time>
      </trkpt>
      <trkpt lat="51.33853" lon="3.30322">
        <ele>-5.63</ele>
        <time>2018-01-28T09:58:23Z</time>
      </trkpt>
      <trkpt lat="51.33853" lon="3.30347">
        <ele>-5.63</ele>
        <time>2018-01-28T09:58:35Z</time>
      </trkpt>
      <trkpt lat="51.33859" lon="3.30369">
        <ele>-5.63</ele>
        <time>2018-01-28T09:58:49Z</time>
      </trkpt>
      <trkpt lat="51.33866" lon="3.3039">
        <ele>-5.63</ele>
        <time>2018-01-28T09:59:02Z</time>
      </trkpt>
      <trkpt lat="51.33867" lon="3.30395">
        <ele>-5.63</ele>
        <time>2018-01-28T09:59:05Z</time>
      </trkpt>
      <trkpt lat="51.33871" lon="3.30416">
        <ele>-5.63</ele>
        <time>2018-01-28T09:59:17Z</time>
      </trkpt>
      <trkpt lat="51.33874" lon="3.30423">
        <ele>-5.63</ele>
        <time>2018-01-28T09:59:22Z</time>
      </trkpt>
      <trkpt lat="51.3388" lon="3.30447">
        <ele>-6.11</ele>
        <time>2018-01-28T09:59:38Z</time>
      </trkpt>
      <trkpt lat="51.33895" lon="3.30447">
        <ele>-6.59</ele>
        <time>2018-01-28T09:59:49Z</time>
      </trkpt>
      <trkpt lat="51.33906" lon="3.30442">
        <ele>-6.11</ele>
        <time>2018-01-28T10:00:01Z</time>
      </trkpt>
      <trkpt lat="51.33907" lon="3.30443">
        <ele>-6.11</ele>
        <time>2018-01-28T10:00:02Z</time>
      </trkpt>
      <trkpt lat="51.33915" lon="3.30451">
        <ele>-6.11</ele>
        <time>2018-01-28T10:00:08Z</time>
      </trkpt>
      <trkpt lat="51.33922" lon="3.30459">
        <ele>-6.11</ele>
        <time>2018-01-28T10:00:14Z</time>
      </trkpt>
      <trkpt lat="51.33929" lon="3.30465">
        <ele>-6.11</ele>
        <time>2018-01-28T10:00:19Z</time>
      </trkpt>
      <trkpt lat="51.33932" lon="3.30473">
        <ele>-6.11</ele>
        <time>2018-01-28T10:00:25Z</time>
      </trkpt>
      <trkpt lat="51.33934" lon="3.30496">
        <ele>-6.11</ele>
        <time>2018-01-28T10:00:37Z</time>
      </trkpt>
      <trkpt lat="51.33937" lon="3.3052">
        <ele>-6.11</ele>
        <time>2018-01-28T10:00:50Z</time>
      </trkpt>
      <trkpt lat="51.33939" lon="3.30541">
        <ele>-6.11</ele>
        <time>2018-01-28T10:01:03Z</time>
      </trkpt>
      <trkpt lat="51.33938" lon="3.30544">
        <ele>-6.11</ele>
        <time>2018-01-28T10:01:05Z</time>
      </trkpt>
      <trkpt lat="51.33939" lon="3.30551">
        <ele>-6.11</ele>
        <time>2018-01-28T10:01:08Z</time>
      </trkpt>
      <trkpt lat="51.3394" lon="3.30578">
        <ele>-6.11</ele>
        <time>2018-01-28T10:01:21Z</time>
      </trkpt>
      <trkpt lat="51.3394" lon="3.30605">
        <ele>-6.11</ele>
        <time>2018-01-28T10:01:34Z</time>
      </trkpt>
      <trkpt lat="51.33941" lon="3.30631">
        <ele>-6.11</ele>
        <time>2018-01-28T10:01:47Z</time>
      </trkpt>
      <trkpt lat="51.33942" lon="3.30656">
        <ele>-6.11</ele>
        <time>2018-01-28T10:01:59Z</time>
      </trkpt>
      <trkpt lat="51.33942" lon="3.30669">
        <ele>-6.11</ele>
        <time>2018-01-28T10:02:05Z</time>
      </trkpt>
      <trkpt lat="51.33944" lon="3.30693">
        <ele>-6.11</ele>
        <time>2018-01-28T10:02:18Z</time>
      </trkpt>
      <trkpt lat="51.33946" lon="3.30709">
        <ele>-6.11</ele>
        <time>2018-01-28T10:02:27Z</time>
      </trkpt>
      <trkpt lat="51.33944" lon="3.30727">
        <ele>-6.11</ele>
        <time>2018-01-28T10:02:39Z</time>
      </trkpt>
      <trkpt lat="51.33943" lon="3.30746">
        <ele>-6.11</ele>
        <time>2018-01-28T10:02:56Z</time>
      </trkpt>
      <trkpt lat="51.3394" lon="3.30756">
        <ele>-6.11</ele>
        <time>2018-01-28T10:03:08Z</time>
      </trkpt>
      <trkpt lat="51.33944" lon="3.30774">
        <ele>-6.11</ele>
        <time>2018-01-28T10:03:18Z</time>
      </trkpt>
      <trkpt lat="51.33947" lon="3.30778">
        <ele>-6.11</ele>
        <time>2018-01-28T10:03:21Z</time>
      </trkpt>
      <trkpt lat="51.33949" lon="3.30784">
        <ele>-6.11</ele>
        <time>2018-01-28T10:03:25Z</time>
      </trkpt>
      <trkpt lat="51.33951" lon="3.30787">
        <ele>-5.15</ele>
        <time>2018-01-28T10:03:27Z</time>
      </trkpt>
      <trkpt lat="51.33952" lon="3.30808">
        <ele>-5.15</ele>
        <time>2018-01-28T10:03:35Z</time>
      </trkpt>
      <trkpt lat="51.33956" lon="3.30832">
        <ele>-5.15</ele>
        <time>2018-01-28T10:03:47Z</time>
      </trkpt>
      <trkpt lat="51.33958" lon="3.3084">
        <ele>-5.15</ele>
        <time>2018-01-28T10:03:51Z</time>
      </trkpt>
      <trkpt lat="51.33962" lon="3.30859">
        <ele>-5.15</ele>
        <time>2018-01-28T10:04:00Z</time>
      </trkpt>
      <trkpt lat="51.33971" lon="3.30888">
        <ele>-5.15</ele>
        <time>2018-01-28T10:04:16Z</time>
      </trkpt>
      <trkpt lat="51.33971" lon="3.3089">
        <ele>-5.15</ele>
        <time>2018-01-28T10:04:17Z</time>
      </trkpt>
      <trkpt lat="51.33982" lon="3.30911">
        <ele>-5.15</ele>
        <time>2018-01-28T10:04:31Z</time>
      </trkpt>
      <trkpt lat="51.33991" lon="3.30926">
        <ele>-4.67</ele>
        <time>2018-01-28T10:04:42Z</time>
      </trkpt>
      <trkpt lat="51.33992" lon="3.30936">
        <ele>-4.67</ele>
        <time>2018-01-28T10:04:47Z</time>
      </trkpt>
      <trkpt lat="51.33994" lon="3.30954">
        <ele>-4.67</ele>
        <time>2018-01-28T10:04:58Z</time>
      </trkpt>
      <trkpt lat="51.33993" lon="3.30956">
        <ele>-4.67</ele>
        <time>2018-01-28T10:04:59Z</time>
      </trkpt>
      <trkpt lat="51.33984" lon="3.30975">
        <ele>-4.19</ele>
        <time>2018-01-28T10:05:11Z</time>
      </trkpt>
      <trkpt lat="51.33977" lon="3.30994">
        <ele>-4.19</ele>
        <time>2018-01-28T10:05:23Z</time>
      </trkpt>
      <trkpt lat="51.33971" lon="3.31019">
        <ele>-4.19</ele>
        <time>2018-01-28T10:05:37Z</time>
      </trkpt>
      <trkpt lat="51.33962" lon="3.31046">
        <ele>-4.19</ele>
        <time>2018-01-28T10:05:51Z</time>
      </trkpt>
      <trkpt lat="51.33958" lon="3.31055">
        <ele>-4.19</ele>
        <time>2018-01-28T10:05:57Z</time>
      </trkpt>
      <trkpt lat="51.33957" lon="3.31065">
        <ele>-4.19</ele>
        <time>2018-01-28T10:06:04Z</time>
      </trkpt>
      <trkpt lat="51.33955" lon="3.31094">
        <ele>-4.19</ele>
        <time>2018-01-28T10:06:19Z</time>
      </trkpt>
      <trkpt lat="51.3395" lon="3.31117">
        <ele>-4.19</ele>
        <time>2018-01-28T10:06:28Z</time>
      </trkpt>
      <trkpt lat="51.33949" lon="3.31137">
        <ele>-4.19</ele>
        <time>2018-01-28T10:06:39Z</time>
      </trkpt>
      <trkpt lat="51.33948" lon="3.31153">
        <ele>-3.71</ele>
        <time>2018-01-28T10:06:48Z</time>
      </trkpt>
      <trkpt lat="51.33948" lon="3.31155">
        <ele>-3.71</ele>
        <time>2018-01-28T10:06:49Z</time>
      </trkpt>
      <trkpt lat="51.33949" lon="3.31172">
        <ele>-3.71</ele>
        <time>2018-01-28T10:06:58Z</time>
      </trkpt>
      <trkpt lat="51.33951" lon="3.31196">
        <ele>-3.71</ele>
        <time>2018-01-28T10:07:11Z</time>
      </trkpt>
      <trkpt lat="51.33953" lon="3.3121">
        <ele>-3.71</ele>
        <time>2018-01-28T10:07:21Z</time>
      </trkpt>
      <trkpt lat="51.3395" lon="3.31236">
        <ele>-3.71</ele>
        <time>2018-01-28T10:07:32Z</time>
      </trkpt>
      <trkpt lat="51.33951" lon="3.3124">
        <ele>-3.71</ele>
        <time>2018-01-28T10:07:34Z</time>
      </trkpt>
      <trkpt lat="51.3395" lon="3.31248">
        <ele>-3.71</ele>
        <time>2018-01-28T10:07:37Z</time>
      </trkpt>
      <trkpt lat="51.3395" lon="3.31251">
        <ele>-3.71</ele>
        <time>2018-01-28T10:07:39Z</time>
      </trkpt>
      <trkpt lat="51.3395" lon="3.31252">
        <ele>-3.71</ele>
        <time>2018-01-28T10:07:40Z</time>
      </trkpt>
      <trkpt lat="51.3395" lon="3.31255">
        <ele>-3.71</ele>
        <time>2018-01-28T10:07:41Z</time>
      </trkpt>
      <trkpt lat="51.3395" lon="3.31257">
        <ele>-3.71</ele>
        <time>2018-01-28T10:07:42Z</time>
      </trkpt>
      <trkpt lat="51.3395" lon="3.3126">
        <ele>-3.71</ele>
        <time>2018-01-28T10:07:43Z</time>
      </trkpt>
      <trkpt lat="51.3395" lon="3.31268">
        <ele>-3.71</ele>
        <time>2018-01-28T10:07:46Z</time>
      </trkpt>
      <trkpt lat="51.33949" lon="3.31271">
        <ele>-3.71</ele>
        <time>2018-01-28T10:07:47Z</time>
      </trkpt>
      <trkpt lat="51.33952" lon="3.31291">
        <ele>-3.71</ele>
        <time>2018-01-28T10:08:00Z</time>
      </trkpt>
      <trkpt lat="51.33953" lon="3.31302">
        <ele>-3.71</ele>
        <time>2018-01-28T10:08:05Z</time>
      </trkpt>
      <trkpt lat="51.33953" lon="3.31305">
        <ele>-3.71</ele>
        <time>2018-01-28T10:08:06Z</time>
      </trkpt>
      <trkpt lat="51.33955" lon="3.31329">
        <ele>-3.71</ele>
        <time>2018-01-28T10:08:18Z</time>
      </trkpt>
      <trkpt lat="51.33956" lon="3.31331">
        <ele>-3.71</ele>
        <time>2018-01-28T10:08:19Z</time>
      </trkpt>
      <trkpt lat="51.33955" lon="3.31342">
        <ele>-3.71</ele>
        <time>2018-01-28T10:08:23Z</time>
      </trkpt>
      <trkpt lat="51.33963" lon="3.31356">
        <ele>-3.71</ele>
        <time>2018-01-28T10:08:33Z</time>
      </trkpt>
      <trkpt lat="51.33972" lon="3.31369">
        <ele>-4.67</ele>
        <time>2018-01-28T10:08:44Z</time>
      </trkpt>
      <trkpt lat="51.33979" lon="3.31377">
        <ele>-4.67</ele>
        <time>2018-01-28T10:08:52Z</time>
      </trkpt>
      <trkpt lat="51.33982" lon="3.31382">
        <ele>-4.67</ele>
        <time>2018-01-28T10:08:55Z</time>
      </trkpt>
      <trkpt lat="51.33983" lon="3.31383">
        <ele>-4.67</ele>
        <time>2018-01-28T10:08:56Z</time>
      </trkpt>
      <trkpt lat="51.33985" lon="3.31383">
        <ele>-4.67</ele>
        <time>2018-01-28T10:08:57Z</time>
      </trkpt>
      <trkpt lat="51.33987" lon="3.31385">
        <ele>-4.67</ele>
        <time>2018-01-28T10:08:59Z</time>
      </trkpt>
      <trkpt lat="51.33994" lon="3.31396">
        <ele>-4.67</ele>
        <time>2018-01-28T10:09:07Z</time>
      </trkpt>
      <trkpt lat="51.33995" lon="3.31398">
        <ele>-4.67</ele>
        <time>2018-01-28T10:09:08Z</time>
      </trkpt>
      <trkpt lat="51.33996" lon="3.314">
        <ele>-4.67</ele>
        <time>2018-01-28T10:09:09Z</time>
      </trkpt>
      <trkpt lat="51.34017" lon="3.31411">
        <ele>-4.67</ele>
        <time>2018-01-28T10:09:27Z</time>
      </trkpt>
      <trkpt lat="51.34019" lon="3.31412">
        <ele>-4.67</ele>
        <time>2018-01-28T10:09:29Z</time>
      </trkpt>
      <trkpt lat="51.34039" lon="3.31419">
        <ele>-4.67</ele>
        <time>2018-01-28T10:09:43Z</time>
      </trkpt>
      <trkpt lat="51.34044" lon="3.31422">
        <ele>-4.67</ele>
        <time>2018-01-28T10:09:47Z</time>
      </trkpt>
      <trkpt lat="51.34065" lon="3.31428">
        <ele>-4.67</ele>
        <time>2018-01-28T10:10:00Z</time>
      </trkpt>
      <trkpt lat="51.34071" lon="3.31429">
        <ele>-4.67</ele>
        <time>2018-01-28T10:10:05Z</time>
      </trkpt>
      <trkpt lat="51.34073" lon="3.31429">
        <ele>-4.67</ele>
        <time>2018-01-28T10:10:06Z</time>
      </trkpt>
      <trkpt lat="51.34074" lon="3.31429">
        <ele>-4.67</ele>
        <time>2018-01-28T10:10:07Z</time>
      </trkpt>
      <trkpt lat="51.34075" lon="3.3143">
        <ele>-4.67</ele>
        <time>2018-01-28T10:10:08Z</time>
      </trkpt>
      <trkpt lat="51.34076" lon="3.3143">
        <ele>-4.67</ele>
        <time>2018-01-28T10:10:09Z</time>
      </trkpt>
      <trkpt lat="51.34077" lon="3.3143">
        <ele>-4.67</ele>
        <time>2018-01-28T10:10:10Z</time>
      </trkpt>
      <trkpt lat="51.34085" lon="3.31438">
        <ele>-4.67</ele>
        <time>2018-01-28T10:10:16Z</time>
      </trkpt>
      <trkpt lat="51.34086" lon="3.31439">
        <ele>-4.67</ele>
        <time>2018-01-28T10:10:17Z</time>
      </trkpt>
      <trkpt lat="51.3409" lon="3.31441">
        <ele>-4.67</ele>
        <time>2018-01-28T10:10:21Z</time>
      </trkpt>
      <trkpt lat="51.34095" lon="3.31442">
        <ele>-4.67</ele>
        <time>2018-01-28T10:10:26Z</time>
      </trkpt>
      <trkpt lat="51.34112" lon="3.3145">
        <ele>-4.67</ele>
        <time>2018-01-28T10:10:39Z</time>
      </trkpt>
      <trkpt lat="51.34116" lon="3.31452">
        <ele>-4.67</ele>
        <time>2018-01-28T10:10:41Z</time>
      </trkpt>
      <trkpt lat="51.34117" lon="3.31453">
        <ele>-4.67</ele>
        <time>2018-01-28T10:10:42Z</time>
      </trkpt>
      <trkpt lat="51.34137" lon="3.31458">
        <ele>-4.67</ele>
        <time>2018-01-28T10:10:57Z</time>
      </trkpt>
      <trkpt lat="51.34149" lon="3.31466">
        <ele>-4.67</ele>
        <time>2018-01-28T10:11:11Z</time>
      </trkpt>
      <trkpt lat="51.34166" lon="3.31471">
        <ele>-4.67</ele>
        <time>2018-01-28T10:11:25Z</time>
      </trkpt>
      <trkpt lat="51.34182" lon="3.31479">
        <ele>-4.67</ele>
        <time>2018-01-28T10:11:40Z</time>
      </trkpt>
      <trkpt lat="51.34191" lon="3.31484">
        <ele>-3.71</ele>
        <time>2018-01-28T10:11:45Z</time>
      </trkpt>
      <trkpt lat="51.34211" lon="3.3149">
        <ele>-3.71</ele>
        <time>2018-01-28T10:12:02Z</time>
      </trkpt>
      <trkpt lat="51.34237" lon="3.31499">
        <ele>-3.71</ele>
        <time>2018-01-28T10:12:20Z</time>
      </trkpt>
      <trkpt lat="51.34243" lon="3.315">
        <ele>-3.71</ele>
        <time>2018-01-28T10:12:25Z</time>
      </trkpt>
      <trkpt lat="51.34261" lon="3.31501">
        <ele>-3.23</ele>
        <time>2018-01-28T10:12:43Z</time>
      </trkpt>
      <trkpt lat="51.34278" lon="3.315">
        <ele>-3.23</ele>
        <time>2018-01-28T10:13:00Z</time>
      </trkpt>
      <trkpt lat="51.34304" lon="3.31507">
        <ele>-2.75</ele>
        <time>2018-01-28T10:13:15Z</time>
      </trkpt>
      <trkpt lat="51.3432" lon="3.31516">
        <ele>-3.23</ele>
        <time>2018-01-28T10:13:28Z</time>
      </trkpt>
      <trkpt lat="51.34342" lon="3.31535">
        <ele>-3.23</ele>
        <time>2018-01-28T10:13:45Z</time>
      </trkpt>
      <trkpt lat="51.34354" lon="3.31555">
        <ele>-3.23</ele>
        <time>2018-01-28T10:13:58Z</time>
      </trkpt>
      <trkpt lat="51.34371" lon="3.31564">
        <ele>-2.75</ele>
        <time>2018-01-28T10:14:13Z</time>
      </trkpt>
      <trkpt lat="51.34382" lon="3.31567">
        <ele>-2.75</ele>
        <time>2018-01-28T10:14:25Z</time>
      </trkpt>
      <trkpt lat="51.34402" lon="3.31567">
        <ele>-2.75</ele>
        <time>2018-01-28T10:14:41Z</time>
      </trkpt>
      <trkpt lat="51.34424" lon="3.31547">
        <ele>-2.75</ele>
        <time>2018-01-28T10:14:57Z</time>
      </trkpt>
      <trkpt lat="51.34446" lon="3.31516">
        <ele>-2.75</ele>
        <time>2018-01-28T10:15:13Z</time>
      </trkpt>
      <trkpt lat="51.34456" lon="3.31488">
        <ele>-4.19</ele>
        <time>2018-01-28T10:15:30Z</time>
      </trkpt>
      <trkpt lat="51.34471" lon="3.31466">
        <ele>-5.15</ele>
        <time>2018-01-28T10:15:47Z</time>
      </trkpt>
      <trkpt lat="51.34487" lon="3.31445">
        <ele>-5.15</ele>
        <time>2018-01-28T10:16:04Z</time>
      </trkpt>
      <trkpt lat="51.34497" lon="3.3144">
        <ele>-4.67</ele>
        <time>2018-01-28T10:16:16Z</time>
      </trkpt>
      <trkpt lat="51.3451" lon="3.31435">
        <ele>-4.67</ele>
        <time>2018-01-28T10:16:29Z</time>
      </trkpt>
      <trkpt lat="51.34523" lon="3.3143">
        <ele>-4.67</ele>
        <time>2018-01-28T10:16:44Z</time>
      </trkpt>
      <trkpt lat="51.34542" lon="3.31418">
        <ele>-5.15</ele>
        <time>2018-01-28T10:17:00Z</time>
      </trkpt>
      <trkpt lat="51.34558" lon="3.31415">
        <ele>-5.15</ele>
        <time>2018-01-28T10:17:14Z</time>
      </trkpt>
      <trkpt lat="51.34576" lon="3.31405">
        <ele>-5.15</ele>
        <time>2018-01-28T10:17:28Z</time>
      </trkpt>
      <trkpt lat="51.34593" lon="3.31397">
        <ele>-5.15</ele>
        <time>2018-01-28T10:17:45Z</time>
      </trkpt>
      <trkpt lat="51.34608" lon="3.3141">
        <ele>-5.15</ele>
        <time>2018-01-28T10:17:59Z</time>
      </trkpt>
      <trkpt lat="51.34627" lon="3.31426">
        <ele>-5.15</ele>
        <time>2018-01-28T10:18:17Z</time>
      </trkpt>
      <trkpt lat="51.34638" lon="3.31455">
        <ele>-3.71</ele>
        <time>2018-01-28T10:18:34Z</time>
      </trkpt>
      <trkpt lat="51.34645" lon="3.31485">
        <ele>-3.23</ele>
        <time>2018-01-28T10:18:49Z</time>
      </trkpt>
      <trkpt lat="51.34654" lon="3.31513">
        <ele>-2.75</ele>
        <time>2018-01-28T10:19:05Z</time>
      </trkpt>
      <trkpt lat="51.34664" lon="3.31537">
        <ele>-1.3</ele>
        <time>2018-01-28T10:19:21Z</time>
      </trkpt>
      <trkpt lat="51.34674" lon="3.31555">
        <ele>0.14</ele>
        <time>2018-01-28T10:19:38Z</time>
      </trkpt>
      <trkpt lat="51.34691" lon="3.31574">
        <ele>1.1</ele>
        <time>2018-01-28T10:19:55Z</time>
      </trkpt>
      <trkpt lat="51.34701" lon="3.31583">
        <ele>2.54</ele>
        <time>2018-01-28T10:20:04Z</time>
      </trkpt>
      <trkpt lat="51.34721" lon="3.31593">
        <ele>2.54</ele>
        <time>2018-01-28T10:20:18Z</time>
      </trkpt>
      <trkpt lat="51.3474" lon="3.3161">
        <ele>2.54</ele>
        <time>2018-01-28T10:20:35Z</time>
      </trkpt>
      <trkpt lat="51.34761" lon="3.31618">
        <ele>3.5</ele>
        <time>2018-01-28T10:20:54Z</time>
      </trkpt>
      <trkpt lat="51.34781" lon="3.31619">
        <ele>1.1</ele>
        <time>2018-01-28T10:21:12Z</time>
      </trkpt>
      <trkpt lat="51.34795" lon="3.3162">
        <ele>0.14</ele>
        <time>2018-01-28T10:21:27Z</time>
      </trkpt>
      <trkpt lat="51.34812" lon="3.31611">
        <ele>-1.79</ele>
        <time>2018-01-28T10:21:44Z</time>
      </trkpt>
      <trkpt lat="51.34834" lon="3.31595">
        <ele>-2.75</ele>
        <time>2018-01-28T10:22:01Z</time>
      </trkpt>
      <trkpt lat="51.3484" lon="3.31592">
        <ele>-3.71</ele>
        <time>2018-01-28T10:22:06Z</time>
      </trkpt>
      <trkpt lat="51.34857" lon="3.31577">
        <ele>-4.67</ele>
        <time>2018-01-28T10:22:22Z</time>
      </trkpt>
      <trkpt lat="51.34876" lon="3.31562">
        <ele>-5.15</ele>
        <time>2018-01-28T10:22:38Z</time>
      </trkpt>
      <trkpt lat="51.34897" lon="3.31544">
        <ele>-5.63</ele>
        <time>2018-01-28T10:22:55Z</time>
      </trkpt>
      <trkpt lat="51.34917" lon="3.31531">
        <ele>-5.63</ele>
        <time>2018-01-28T10:23:12Z</time>
      </trkpt>
      <trkpt lat="51.34938" lon="3.31523">
        <ele>-5.63</ele>
        <time>2018-01-28T10:23:28Z</time>
      </trkpt>
      <trkpt lat="51.34963" lon="3.3152">
        <ele>-5.63</ele>
        <time>2018-01-28T10:23:45Z</time>
      </trkpt>
      <trkpt lat="51.34982" lon="3.3152">
        <ele>-5.63</ele>
        <time>2018-01-28T10:24:00Z</time>
      </trkpt>
      <trkpt lat="51.35005" lon="3.31518">
        <ele>-5.63</ele>
        <time>2018-01-28T10:24:16Z</time>
      </trkpt>
      <trkpt lat="51.35026" lon="3.31518">
        <ele>-6.11</ele>
        <time>2018-01-28T10:24:32Z</time>
      </trkpt>
      <trkpt lat="51.35028" lon="3.31518">
        <ele>-6.11</ele>
        <time>2018-01-28T10:24:34Z</time>
      </trkpt>
      <trkpt lat="51.35036" lon="3.31519">
        <ele>-6.11</ele>
        <time>2018-01-28T10:24:41Z</time>
      </trkpt>
      <trkpt lat="51.35058" lon="3.3152">
        <ele>-6.11</ele>
        <time>2018-01-28T10:24:57Z</time>
      </trkpt>
      <trkpt lat="51.35079" lon="3.31518">
        <ele>-6.11</ele>
        <time>2018-01-28T10:25:15Z</time>
      </trkpt>
      <trkpt lat="51.35097" lon="3.31514">
        <ele>-6.11</ele>
        <time>2018-01-28T10:25:31Z</time>
      </trkpt>
      <trkpt lat="51.35117" lon="3.31514">
        <ele>-6.11</ele>
        <time>2018-01-28T10:25:46Z</time>
      </trkpt>
      <trkpt lat="51.35135" lon="3.31517">
        <ele>-6.11</ele>
        <time>2018-01-28T10:26:01Z</time>
      </trkpt>
      <trkpt lat="51.35158" lon="3.31509">
        <ele>-6.11</ele>
        <time>2018-01-28T10:26:19Z</time>
      </trkpt>
      <trkpt lat="51.35184" lon="3.31513">
        <ele>-6.11</ele>
        <time>2018-01-28T10:26:39Z</time>
      </trkpt>
      <trkpt lat="51.35186" lon="3.31513">
        <ele>-6.11</ele>
        <time>2018-01-28T10:26:40Z</time>
      </trkpt>
      <trkpt lat="51.35197" lon="3.31516">
        <ele>-6.11</ele>
        <time>2018-01-28T10:26:47Z</time>
      </trkpt>
      <trkpt lat="51.3522" lon="3.31517">
        <ele>-6.11</ele>
        <time>2018-01-28T10:27:05Z</time>
      </trkpt>
      <trkpt lat="51.35244" lon="3.31517">
        <ele>-6.11</ele>
        <time>2018-01-28T10:27:22Z</time>
      </trkpt>
      <trkpt lat="51.35262" lon="3.31517">
        <ele>-6.11</ele>
        <time>2018-01-28T10:27:37Z</time>
      </trkpt>
      <trkpt lat="51.35281" lon="3.31516">
        <ele>-6.59</ele>
        <time>2018-01-28T10:27:51Z</time>
      </trkpt>
      <trkpt lat="51.35299" lon="3.31514">
        <ele>-6.59</ele>
        <time>2018-01-28T10:28:07Z</time>
      </trkpt>
      <trkpt lat="51.3532" lon="3.31515">
        <ele>-7.07</ele>
        <time>2018-01-28T10:28:23Z</time>
      </trkpt>
      <trkpt lat="51.35342" lon="3.31515">
        <ele>-7.07</ele>
        <time>2018-01-28T10:28:39Z</time>
      </trkpt>
      <trkpt lat="51.35362" lon="3.31515">
        <ele>-7.07</ele>
        <time>2018-01-28T10:28:55Z</time>
      </trkpt>
      <trkpt lat="51.35382" lon="3.31512">
        <ele>-7.55</ele>
        <time>2018-01-28T10:29:10Z</time>
      </trkpt>
      <trkpt lat="51.35391" lon="3.31517">
        <ele>-7.55</ele>
        <time>2018-01-28T10:29:17Z</time>
      </trkpt>
      <trkpt lat="51.35406" lon="3.31542">
        <ele>-7.55</ele>
        <time>2018-01-28T10:29:35Z</time>
      </trkpt>
      <trkpt lat="51.35415" lon="3.31556">
        <ele>-7.55</ele>
        <time>2018-01-28T10:29:45Z</time>
      </trkpt>
      <trkpt lat="51.35425" lon="3.31572">
        <ele>-7.55</ele>
        <time>2018-01-28T10:29:54Z</time>
      </trkpt>
      <trkpt lat="51.35442" lon="3.31598">
        <ele>-7.55</ele>
        <time>2018-01-28T10:30:10Z</time>
      </trkpt>
      <trkpt lat="51.3545" lon="3.31611">
        <ele>-6.11</ele>
        <time>2018-01-28T10:30:19Z</time>
      </trkpt>
      <trkpt lat="51.35458" lon="3.31623">
        <ele>-7.55</ele>
        <time>2018-01-28T10:30:29Z</time>
      </trkpt>
      <trkpt lat="51.35463" lon="3.31631">
        <ele>-6.11</ele>
        <time>2018-01-28T10:30:35Z</time>
      </trkpt>
      <trkpt lat="51.35476" lon="3.31657">
        <ele>-6.11</ele>
        <time>2018-01-28T10:30:50Z</time>
      </trkpt>
      <trkpt lat="51.35489" lon="3.3168">
        <ele>-7.07</ele>
        <time>2018-01-28T10:31:05Z</time>
      </trkpt>
      <trkpt lat="51.35493" lon="3.31713">
        <ele>-6.59</ele>
        <time>2018-01-28T10:31:21Z</time>
      </trkpt>
      <trkpt lat="51.35495" lon="3.31731">
        <ele>-6.59</ele>
        <time>2018-01-28T10:31:30Z</time>
      </trkpt>
      <trkpt lat="51.35501" lon="3.31755">
        <ele>-6.59</ele>
        <time>2018-01-28T10:31:43Z</time>
      </trkpt>
      <trkpt lat="51.35501" lon="3.31772">
        <ele>-8.03</ele>
        <time>2018-01-28T10:31:51Z</time>
      </trkpt>
      <trkpt lat="51.35498" lon="3.31787">
        <ele>-6.59</ele>
        <time>2018-01-28T10:32:06Z</time>
      </trkpt>
      <trkpt lat="51.35494" lon="3.31792">
        <ele>-6.11</ele>
        <time>2018-01-28T10:32:30Z</time>
      </trkpt>
      <trkpt lat="51.35505" lon="3.31791">
        <ele>-6.11</ele>
        <time>2018-01-28T10:32:43Z</time>
      </trkpt>
      <trkpt lat="51.35507" lon="3.31793">
        <ele>-7.55</ele>
        <time>2018-01-28T10:32:45Z</time>
      </trkpt>
      <trkpt lat="51.35511" lon="3.31793">
        <ele>-7.55</ele>
        <time>2018-01-28T10:32:52Z</time>
      </trkpt>
      <trkpt lat="51.35529" lon="3.31807">
        <ele>-7.55</ele>
        <time>2018-01-28T10:33:08Z</time>
      </trkpt>
      <trkpt lat="51.35541" lon="3.31822">
        <ele>-7.55</ele>
        <time>2018-01-28T10:33:22Z</time>
      </trkpt>
      <trkpt lat="51.35557" lon="3.31839">
        <ele>-7.55</ele>
        <time>2018-01-28T10:33:37Z</time>
      </trkpt>
      <trkpt lat="51.35565" lon="3.31849">
        <ele>-6.59</ele>
        <time>2018-01-28T10:33:44Z</time>
      </trkpt>
      <trkpt lat="51.35565" lon="3.31853">
        <ele>-6.59</ele>
        <time>2018-01-28T10:33:47Z</time>
      </trkpt>
      <trkpt lat="51.35553" lon="3.31879">
        <ele>-6.59</ele>
        <time>2018-01-28T10:34:04Z</time>
      </trkpt>
      <trkpt lat="51.35539" lon="3.31902">
        <ele>-6.11</ele>
        <time>2018-01-28T10:34:20Z</time>
      </trkpt>
      <trkpt lat="51.35534" lon="3.31928">
        <ele>-5.63</ele>
        <time>2018-01-28T10:34:33Z</time>
      </trkpt>
      <trkpt lat="51.35526" lon="3.31945">
        <ele>-7.55</ele>
        <time>2018-01-28T10:34:45Z</time>
      </trkpt>
      <trkpt lat="51.35525" lon="3.3198">
        <ele>-7.55</ele>
        <time>2018-01-28T10:35:02Z</time>
      </trkpt>
      <trkpt lat="51.35523" lon="3.32013">
        <ele>-7.55</ele>
        <time>2018-01-28T10:35:17Z</time>
      </trkpt>
      <trkpt lat="51.35524" lon="3.32024">
        <ele>-7.55</ele>
        <time>2018-01-28T10:35:22Z</time>
      </trkpt>
      <trkpt lat="51.35521" lon="3.32046">
        <ele>-7.55</ele>
        <time>2018-01-28T10:35:38Z</time>
      </trkpt>
      <trkpt lat="51.3552" lon="3.32058">
        <ele>-7.55</ele>
        <time>2018-01-28T10:35:51Z</time>
      </trkpt>
      <trkpt lat="51.3551" lon="3.32076">
        <ele>-6.59</ele>
        <time>2018-01-28T10:36:07Z</time>
      </trkpt>
      <trkpt lat="51.35511" lon="3.32093">
        <ele>-6.11</ele>
        <time>2018-01-28T10:36:27Z</time>
      </trkpt>
      <trkpt lat="51.35511" lon="3.32114">
        <ele>-6.11</ele>
        <time>2018-01-28T10:36:39Z</time>
      </trkpt>
      <trkpt lat="51.35512" lon="3.32122">
        <ele>-6.11</ele>
        <time>2018-01-28T10:36:42Z</time>
      </trkpt>
      <trkpt lat="51.35513" lon="3.3213">
        <ele>-6.11</ele>
        <time>2018-01-28T10:36:45Z</time>
      </trkpt>
      <trkpt lat="51.35507" lon="3.32159">
        <ele>-6.11</ele>
        <time>2018-01-28T10:37:00Z</time>
      </trkpt>
      <trkpt lat="51.35501" lon="3.32183">
        <ele>-6.11</ele>
        <time>2018-01-28T10:37:14Z</time>
      </trkpt>
      <trkpt lat="51.35503" lon="3.32204">
        <ele>-6.11</ele>
        <time>2018-01-28T10:37:28Z</time>
      </trkpt>
      <trkpt lat="51.35503" lon="3.32207">
        <ele>-6.11</ele>
        <time>2018-01-28T10:37:30Z</time>
      </trkpt>
      <trkpt lat="51.35498" lon="3.32243">
        <ele>-6.11</ele>
        <time>2018-01-28T10:37:43Z</time>
      </trkpt>
      <trkpt lat="51.35499" lon="3.3226">
        <ele>-6.11</ele>
        <time>2018-01-28T10:37:53Z</time>
      </trkpt>
      <trkpt lat="51.35498" lon="3.32291">
        <ele>-5.63</ele>
        <time>2018-01-28T10:38:06Z</time>
      </trkpt>
      <trkpt lat="51.35495" lon="3.3232">
        <ele>-5.63</ele>
        <time>2018-01-28T10:38:20Z</time>
      </trkpt>
      <trkpt lat="51.3549" lon="3.32342">
        <ele>-5.63</ele>
        <time>2018-01-28T10:38:33Z</time>
      </trkpt>
      <trkpt lat="51.35487" lon="3.32356">
        <ele>-5.63</ele>
        <time>2018-01-28T10:38:40Z</time>
      </trkpt>
      <trkpt lat="51.3548" lon="3.32381">
        <ele>-5.63</ele>
        <time>2018-01-28T10:38:53Z</time>
      </trkpt>
      <trkpt lat="51.35479" lon="3.32393">
        <ele>-5.63</ele>
        <time>2018-01-28T10:38:58Z</time>
      </trkpt>
      <trkpt lat="51.35479" lon="3.32397">
        <ele>-5.63</ele>
        <time>2018-01-28T10:39:00Z</time>
      </trkpt>
      <trkpt lat="51.35475" lon="3.32427">
        <ele>-6.59</ele>
        <time>2018-01-28T10:39:15Z</time>
      </trkpt>
      <trkpt lat="51.35473" lon="3.32454">
        <ele>-5.15</ele>
        <time>2018-01-28T10:39:28Z</time>
      </trkpt>
      <trkpt lat="51.35472" lon="3.32456">
        <ele>-5.15</ele>
        <time>2018-01-28T10:39:29Z</time>
      </trkpt>
      <trkpt lat="51.35469" lon="3.32461">
        <ele>-5.15</ele>
        <time>2018-01-28T10:39:33Z</time>
      </trkpt>
      <trkpt lat="51.35456" lon="3.32473">
        <ele>-6.11</ele>
        <time>2018-01-28T10:39:44Z</time>
      </trkpt>
      <trkpt lat="51.35452" lon="3.32488">
        <ele>-6.11</ele>
        <time>2018-01-28T10:40:00Z</time>
      </trkpt>
      <trkpt lat="51.3545" lon="3.32504">
        <ele>-6.11</ele>
        <time>2018-01-28T10:40:14Z</time>
      </trkpt>
      <trkpt lat="51.35445" lon="3.32525">
        <ele>-6.11</ele>
        <time>2018-01-28T10:40:26Z</time>
      </trkpt>
      <trkpt lat="51.35439" lon="3.32555">
        <ele>-6.11</ele>
        <time>2018-01-28T10:40:42Z</time>
      </trkpt>
      <trkpt lat="51.3545" lon="3.32558">
        <ele>-6.11</ele>
        <time>2018-01-28T10:40:56Z</time>
      </trkpt>
      <trkpt lat="51.35467" lon="3.32552">
        <ele>-6.11</ele>
        <time>2018-01-28T10:41:12Z</time>
      </trkpt>
      <trkpt lat="51.35481" lon="3.32547">
        <ele>-6.11</ele>
        <time>2018-01-28T10:41:25Z</time>
      </trkpt>
      <trkpt lat="51.35494" lon="3.32541">
        <ele>-6.11</ele>
        <time>2018-01-28T10:41:38Z</time>
      </trkpt>
      <trkpt lat="51.35506" lon="3.32541">
        <ele>-4.67</ele>
        <time>2018-01-28T10:41:44Z</time>
      </trkpt>
      <trkpt lat="51.35522" lon="3.32529">
        <ele>-6.11</ele>
        <time>2018-01-28T10:41:56Z</time>
      </trkpt>
      <trkpt lat="51.35532" lon="3.32522">
        <ele>-6.11</ele>
        <time>2018-01-28T10:42:05Z</time>
      </trkpt>
      <trkpt lat="51.35547" lon="3.32514">
        <ele>-6.59</ele>
        <time>2018-01-28T10:42:19Z</time>
      </trkpt>
      <trkpt lat="51.35564" lon="3.32506">
        <ele>-6.59</ele>
        <time>2018-01-28T10:42:35Z</time>
      </trkpt>
      <trkpt lat="51.35567" lon="3.32506">
        <ele>-5.63</ele>
        <time>2018-01-28T10:42:37Z</time>
      </trkpt>
      <trkpt lat="51.35584" lon="3.325">
        <ele>-5.63</ele>
        <time>2018-01-28T10:42:50Z</time>
      </trkpt>
      <trkpt lat="51.35603" lon="3.32492">
        <ele>-5.63</ele>
        <time>2018-01-28T10:43:04Z</time>
      </trkpt>
      <trkpt lat="51.35614" lon="3.32487">
        <ele>-5.63</ele>
        <time>2018-01-28T10:43:12Z</time>
      </trkpt>
      <trkpt lat="51.35621" lon="3.32462">
        <ele>-5.15</ele>
        <time>2018-01-28T10:43:28Z</time>
      </trkpt>
      <trkpt lat="51.35619" lon="3.32443">
        <ele>-5.15</ele>
        <time>2018-01-28T10:43:40Z</time>
      </trkpt>
      <trkpt lat="51.3562" lon="3.32407">
        <ele>-5.15</ele>
        <time>2018-01-28T10:43:56Z</time>
      </trkpt>
      <trkpt lat="51.3562" lon="3.32405">
        <ele>-5.15</ele>
        <time>2018-01-28T10:43:57Z</time>
      </trkpt>
      <trkpt lat="51.35619" lon="3.32394">
        <ele>-5.15</ele>
        <time>2018-01-28T10:44:01Z</time>
      </trkpt>
      <trkpt lat="51.35628" lon="3.32365">
        <ele>-5.15</ele>
        <time>2018-01-28T10:44:18Z</time>
      </trkpt>
      <trkpt lat="51.35631" lon="3.32339">
        <ele>-5.63</ele>
        <time>2018-01-28T10:44:33Z</time>
      </trkpt>
      <trkpt lat="51.35635" lon="3.32312">
        <ele>-6.11</ele>
        <time>2018-01-28T10:44:48Z</time>
      </trkpt>
      <trkpt lat="51.35635" lon="3.32302">
        <ele>-6.11</ele>
        <time>2018-01-28T10:44:54Z</time>
      </trkpt>
      <trkpt lat="51.35633" lon="3.32274">
        <ele>-6.11</ele>
        <time>2018-01-28T10:45:06Z</time>
      </trkpt>
      <trkpt lat="51.35633" lon="3.32241">
        <ele>-6.11</ele>
        <time>2018-01-28T10:45:21Z</time>
      </trkpt>
      <trkpt lat="51.35631" lon="3.32215">
        <ele>-6.11</ele>
        <time>2018-01-28T10:45:35Z</time>
      </trkpt>
      <trkpt lat="51.35634" lon="3.32189">
        <ele>-5.15</ele>
        <time>2018-01-28T10:45:49Z</time>
      </trkpt>
      <trkpt lat="51.35633" lon="3.32173">
        <ele>-5.15</ele>
        <time>2018-01-28T10:45:58Z</time>
      </trkpt>
      <trkpt lat="51.35631" lon="3.32153">
        <ele>-5.15</ele>
        <time>2018-01-28T10:46:12Z</time>
      </trkpt>
      <trkpt lat="51.35637" lon="3.3215">
        <ele>-5.15</ele>
        <time>2018-01-28T10:46:18Z</time>
      </trkpt>
      <trkpt lat="51.3565" lon="3.32152">
        <ele>-5.15</ele>
        <time>2018-01-28T10:46:28Z</time>
      </trkpt>
      <trkpt lat="51.35657" lon="3.32149">
        <ele>-5.15</ele>
        <time>2018-01-28T10:46:33Z</time>
      </trkpt>
      <trkpt lat="51.35678" lon="3.32154">
        <ele>-5.15</ele>
        <time>2018-01-28T10:46:51Z</time>
      </trkpt>
      <trkpt lat="51.35699" lon="3.32167">
        <ele>-4.67</ele>
        <time>2018-01-28T10:47:08Z</time>
      </trkpt>
      <trkpt lat="51.35701" lon="3.32169">
        <ele>-4.67</ele>
        <time>2018-01-28T10:47:10Z</time>
      </trkpt>
      <trkpt lat="51.35723" lon="3.32187">
        <ele>-4.67</ele>
        <time>2018-01-28T10:47:29Z</time>
      </trkpt>
      <trkpt lat="51.35742" lon="3.32209">
        <ele>-4.67</ele>
        <time>2018-01-28T10:47:46Z</time>
      </trkpt>
      <trkpt lat="51.35755" lon="3.32223">
        <ele>-4.67</ele>
        <time>2018-01-28T10:48:01Z</time>
      </trkpt>
      <trkpt lat="51.35764" lon="3.32226">
        <ele>-4.67</ele>
        <time>2018-01-28T10:48:14Z</time>
      </trkpt>
      <trkpt lat="51.35766" lon="3.32215">
        <ele>-4.19</ele>
        <time>2018-01-28T10:48:32Z</time>
      </trkpt>
      <trkpt lat="51.35766" lon="3.3222">
        <ele>-4.19</ele>
        <time>2018-01-28T10:48:43Z</time>
      </trkpt>
      <trkpt lat="51.35765" lon="3.32224">
        <ele>-4.19</ele>
        <time>2018-01-28T10:48:46Z</time>
      </trkpt>
      <trkpt lat="51.35765" lon="3.3223">
        <ele>-4.19</ele>
        <time>2018-01-28T10:48:49Z</time>
      </trkpt>
      <trkpt lat="51.35754" lon="3.32261">
        <ele>-4.19</ele>
        <time>2018-01-28T10:49:06Z</time>
      </trkpt>
      <trkpt lat="51.35751" lon="3.32273">
        <ele>-5.63</ele>
        <time>2018-01-28T10:49:17Z</time>
      </trkpt>
      <trkpt lat="51.35751" lon="3.32273">
        <ele>-4.19</ele>
        <time>2018-01-28T10:49:19Z</time>
      </trkpt>
      <trkpt lat="51.35752" lon="3.32272">
        <ele>-4.19</ele>
        <time>2018-01-28T10:49:37Z</time>
      </trkpt>
      <trkpt lat="51.35749" lon="3.3228">
        <ele>-4.19</ele>
        <time>2018-01-28T10:49:51Z</time>
      </trkpt>
      <trkpt lat="51.35739" lon="3.32301">
        <ele>-4.19</ele>
        <time>2018-01-28T10:50:08Z</time>
      </trkpt>
      <trkpt lat="51.35732" lon="3.32319">
        <ele>-4.19</ele>
        <time>2018-01-28T10:50:23Z</time>
      </trkpt>
      <trkpt lat="51.35724" lon="3.32341">
        <ele>-5.15</ele>
        <time>2018-01-28T10:50:37Z</time>
      </trkpt>
      <trkpt lat="51.35715" lon="3.32365">
        <ele>-5.15</ele>
        <time>2018-01-28T10:50:51Z</time>
      </trkpt>
      <trkpt lat="51.35706" lon="3.32385">
        <ele>-5.15</ele>
        <time>2018-01-28T10:51:03Z</time>
      </trkpt>
      <trkpt lat="51.35702" lon="3.32396">
        <ele>-3.23</ele>
        <time>2018-01-28T10:51:09Z</time>
      </trkpt>
      <trkpt lat="51.35694" lon="3.32417">
        <ele>-5.15</ele>
        <time>2018-01-28T10:51:21Z</time>
      </trkpt>
      <trkpt lat="51.35688" lon="3.32427">
        <ele>-5.15</ele>
        <time>2018-01-28T10:51:27Z</time>
      </trkpt>
      <trkpt lat="51.35682" lon="3.32446">
        <ele>-5.15</ele>
        <time>2018-01-28T10:51:38Z</time>
      </trkpt>
      <trkpt lat="51.35676" lon="3.32475">
        <ele>-5.15</ele>
        <time>2018-01-28T10:51:52Z</time>
      </trkpt>
      <trkpt lat="51.35674" lon="3.32508">
        <ele>-5.15</ele>
        <time>2018-01-28T10:52:08Z</time>
      </trkpt>
      <trkpt lat="51.35677" lon="3.32535">
        <ele>-5.15</ele>
        <time>2018-01-28T10:52:22Z</time>
      </trkpt>
      <trkpt lat="51.35679" lon="3.32543">
        <ele>-5.15</ele>
        <time>2018-01-28T10:52:28Z</time>
      </trkpt>
      <trkpt lat="51.35683" lon="3.32556">
        <ele>-5.15</ele>
        <time>2018-01-28T10:52:35Z</time>
      </trkpt>
      <trkpt lat="51.35687" lon="3.32577">
        <ele>-5.15</ele>
        <time>2018-01-28T10:52:44Z</time>
      </trkpt>
      <trkpt lat="51.35692" lon="3.32597">
        <ele>-5.15</ele>
        <time>2018-01-28T10:52:54Z</time>
      </trkpt>
      <trkpt lat="51.35693" lon="3.32607">
        <ele>-5.15</ele>
        <time>2018-01-28T10:52:58Z</time>
      </trkpt>
      <trkpt lat="51.35699" lon="3.32634">
        <ele>-4.67</ele>
        <time>2018-01-28T10:53:10Z</time>
      </trkpt>
      <trkpt lat="51.35709" lon="3.32677">
        <ele>-4.67</ele>
        <time>2018-01-28T10:53:31Z</time>
      </trkpt>
      <trkpt lat="51.35717" lon="3.32713">
        <ele>-4.67</ele>
        <time>2018-01-28T10:53:48Z</time>
      </trkpt>
      <trkpt lat="51.35726" lon="3.32753">
        <ele>-5.15</ele>
        <time>2018-01-28T10:54:08Z</time>
      </trkpt>
      <trkpt lat="51.35729" lon="3.32766">
        <ele>-5.15</ele>
        <time>2018-01-28T10:54:15Z</time>
      </trkpt>
      <trkpt lat="51.35732" lon="3.32796">
        <ele>-5.15</ele>
        <time>2018-01-28T10:54:30Z</time>
      </trkpt>
      <trkpt lat="51.35734" lon="3.32806">
        <ele>-5.15</ele>
        <time>2018-01-28T10:54:35Z</time>
      </trkpt>
      <trkpt lat="51.35735" lon="3.32817">
        <ele>-5.15</ele>
        <time>2018-01-28T10:54:39Z</time>
      </trkpt>
      <trkpt lat="51.35734" lon="3.32828">
        <ele>-5.15</ele>
        <time>2018-01-28T10:54:43Z</time>
      </trkpt>
      <trkpt lat="51.35736" lon="3.32842">
        <ele>-5.15</ele>
        <time>2018-01-28T10:54:50Z</time>
      </trkpt>
      <trkpt lat="51.3574" lon="3.32859">
        <ele>-5.15</ele>
        <time>2018-01-28T10:55:00Z</time>
      </trkpt>
      <trkpt lat="51.35743" lon="3.32868">
        <ele>-5.15</ele>
        <time>2018-01-28T10:55:05Z</time>
      </trkpt>
      <trkpt lat="51.35748" lon="3.32886">
        <ele>-4.67</ele>
        <time>2018-01-28T10:55:17Z</time>
      </trkpt>
      <trkpt lat="51.3575" lon="3.32905">
        <ele>-5.15</ele>
        <time>2018-01-28T10:55:24Z</time>
      </trkpt>
      <trkpt lat="51.35751" lon="3.32933">
        <ele>-5.15</ele>
        <time>2018-01-28T10:55:37Z</time>
      </trkpt>
      <trkpt lat="51.3575" lon="3.3296">
        <ele>-5.15</ele>
        <time>2018-01-28T10:55:51Z</time>
      </trkpt>
      <trkpt lat="51.3575" lon="3.32985">
        <ele>-5.63</ele>
        <time>2018-01-28T10:56:04Z</time>
      </trkpt>
      <trkpt lat="51.3575" lon="3.33003">
        <ele>-5.63</ele>
        <time>2018-01-28T10:56:16Z</time>
      </trkpt>
      <trkpt lat="51.35758" lon="3.33024">
        <ele>-4.67</ele>
        <time>2018-01-28T10:56:29Z</time>
      </trkpt>
      <trkpt lat="51.35766" lon="3.33047">
        <ele>-4.67</ele>
        <time>2018-01-28T10:56:42Z</time>
      </trkpt>
      <trkpt lat="51.35775" lon="3.33066">
        <ele>-4.19</ele>
        <time>2018-01-28T10:56:53Z</time>
      </trkpt>
      <trkpt lat="51.3578" lon="3.33079">
        <ele>-4.19</ele>
        <time>2018-01-28T10:57:00Z</time>
      </trkpt>
      <trkpt lat="51.35781" lon="3.33089">
        <ele>-4.19</ele>
        <time>2018-01-28T10:57:05Z</time>
      </trkpt>
      <trkpt lat="51.35784" lon="3.3312">
        <ele>-4.19</ele>
        <time>2018-01-28T10:57:19Z</time>
      </trkpt>
      <trkpt lat="51.35791" lon="3.33147">
        <ele>-4.19</ele>
        <time>2018-01-28T10:57:32Z</time>
      </trkpt>
      <trkpt lat="51.35794" lon="3.33181">
        <ele>-5.15</ele>
        <time>2018-01-28T10:57:46Z</time>
      </trkpt>
      <trkpt lat="51.35795" lon="3.33191">
        <ele>-3.71</ele>
        <time>2018-01-28T10:57:50Z</time>
      </trkpt>
      <trkpt lat="51.35798" lon="3.33207">
        <ele>-3.71</ele>
        <time>2018-01-28T10:57:58Z</time>
      </trkpt>
      <trkpt lat="51.35798" lon="3.33214">
        <ele>-4.19</ele>
        <time>2018-01-28T10:58:02Z</time>
      </trkpt>
      <trkpt lat="51.35801" lon="3.33224">
        <ele>-4.19</ele>
        <time>2018-01-28T10:58:08Z</time>
      </trkpt>
      <trkpt lat="51.35815" lon="3.3325">
        <ele>-4.19</ele>
        <time>2018-01-28T10:58:24Z</time>
      </trkpt>
      <trkpt lat="51.35817" lon="3.33252">
        <ele>-5.63</ele>
        <time>2018-01-28T10:58:26Z</time>
      </trkpt>
      <trkpt lat="51.35824" lon="3.33257">
        <ele>-5.63</ele>
        <time>2018-01-28T10:58:32Z</time>
      </trkpt>
      <trkpt lat="51.35838" lon="3.33298">
        <ele>-6.11</ele>
        <time>2018-01-28T10:58:51Z</time>
      </trkpt>
      <trkpt lat="51.3584" lon="3.33305">
        <ele>-4.67</ele>
        <time>2018-01-28T10:58:55Z</time>
      </trkpt>
      <trkpt lat="51.35845" lon="3.33331">
        <ele>-4.67</ele>
        <time>2018-01-28T10:59:09Z</time>
      </trkpt>
      <trkpt lat="51.35855" lon="3.33363">
        <ele>-4.67</ele>
        <time>2018-01-28T10:59:27Z</time>
      </trkpt>
      <trkpt lat="51.35861" lon="3.33382">
        <ele>-4.19</ele>
        <time>2018-01-28T10:59:39Z</time>
      </trkpt>
      <trkpt lat="51.35868" lon="3.33401">
        <ele>-5.63</ele>
        <time>2018-01-28T10:59:50Z</time>
      </trkpt>
      <trkpt lat="51.35873" lon="3.33414">
        <ele>-5.63</ele>
        <time>2018-01-28T11:00:00Z</time>
      </trkpt>
      <trkpt lat="51.35879" lon="3.3343">
        <ele>-5.63</ele>
        <time>2018-01-28T11:00:09Z</time>
      </trkpt>
      <trkpt lat="51.35897" lon="3.33463">
        <ele>-6.11</ele>
        <time>2018-01-28T11:00:27Z</time>
      </trkpt>
      <trkpt lat="51.35912" lon="3.3349">
        <ele>-6.11</ele>
        <time>2018-01-28T11:00:44Z</time>
      </trkpt>
      <trkpt lat="51.35931" lon="3.33528">
        <ele>-6.11</ele>
        <time>2018-01-28T11:01:03Z</time>
      </trkpt>
      <trkpt lat="51.35944" lon="3.33552">
        <ele>-6.11</ele>
        <time>2018-01-28T11:01:20Z</time>
      </trkpt>
      <trkpt lat="51.35958" lon="3.33583">
        <ele>-6.11</ele>
        <time>2018-01-28T11:01:36Z</time>
      </trkpt>
      <trkpt lat="51.35963" lon="3.33591">
        <ele>-6.11</ele>
        <time>2018-01-28T11:01:41Z</time>
      </trkpt>
      <trkpt lat="51.35979" lon="3.3362">
        <ele>-6.11</ele>
        <time>2018-01-28T11:01:59Z</time>
      </trkpt>
      <trkpt lat="51.35985" lon="3.33632">
        <ele>-6.11</ele>
        <time>2018-01-28T11:02:07Z</time>
      </trkpt>
      <trkpt lat="51.36004" lon="3.3367">
        <ele>-6.11</ele>
        <time>2018-01-28T11:02:24Z</time>
      </trkpt>
      <trkpt lat="51.36019" lon="3.33698">
        <ele>-6.11</ele>
        <time>2018-01-28T11:02:40Z</time>
      </trkpt>
      <trkpt lat="51.36035" lon="3.33731">
        <ele>-6.11</ele>
        <time>2018-01-28T11:02:59Z</time>
      </trkpt>
      <trkpt lat="51.36048" lon="3.33751">
        <ele>-6.11</ele>
        <time>2018-01-28T11:03:14Z</time>
      </trkpt>
      <trkpt lat="51.36055" lon="3.33762">
        <ele>-6.11</ele>
        <time>2018-01-28T11:03:20Z</time>
      </trkpt>
      <trkpt lat="51.36062" lon="3.33774">
        <ele>-6.11</ele>
        <time>2018-01-28T11:03:27Z</time>
      </trkpt>
      <trkpt lat="51.36082" lon="3.33766">
        <ele>-6.11</ele>
        <time>2018-01-28T11:03:44Z</time>
      </trkpt>
      <trkpt lat="51.36089" lon="3.3376">
        <ele>-6.11</ele>
        <time>2018-01-28T11:03:50Z</time>
      </trkpt>
      <trkpt lat="51.36095" lon="3.33755">
        <ele>-6.11</ele>
        <time>2018-01-28T11:03:56Z</time>
      </trkpt>
      <trkpt lat="51.36106" lon="3.33746">
        <ele>-6.11</ele>
        <time>2018-01-28T11:04:04Z</time>
      </trkpt>
      <trkpt lat="51.36133" lon="3.33722">
        <ele>-5.63</ele>
        <time>2018-01-28T11:04:25Z</time>
      </trkpt>
      <trkpt lat="51.36154" lon="3.33707">
        <ele>-5.63</ele>
        <time>2018-01-28T11:04:42Z</time>
      </trkpt>
      <trkpt lat="51.36175" lon="3.33696">
        <ele>-5.63</ele>
        <time>2018-01-28T11:04:58Z</time>
      </trkpt>
      <trkpt lat="51.3618" lon="3.337">
        <ele>-5.63</ele>
        <time>2018-01-28T11:05:03Z</time>
      </trkpt>
      <trkpt lat="51.3619" lon="3.33728">
        <ele>-4.67</ele>
        <time>2018-01-28T11:05:19Z</time>
      </trkpt>
      <trkpt lat="51.36197" lon="3.33743">
        <ele>-3.71</ele>
        <time>2018-01-28T11:05:29Z</time>
      </trkpt>
      <trkpt lat="51.36211" lon="3.3377">
        <ele>-3.23</ele>
        <time>2018-01-28T11:05:47Z</time>
      </trkpt>
      <trkpt lat="51.36213" lon="3.33777">
        <ele>-2.75</ele>
        <time>2018-01-28T11:06:04Z</time>
      </trkpt>
      <trkpt lat="51.36214" lon="3.33777">
        <ele>-2.75</ele>
        <time>2018-01-28T11:06:10Z</time>
      </trkpt>
      <trkpt lat="51.36217" lon="3.33806">
        <ele>-3.71</ele>
        <time>2018-01-28T11:06:26Z</time>
      </trkpt>
      <trkpt lat="51.36217" lon="3.33809">
        <ele>-4.19</ele>
        <time>2018-01-28T11:06:28Z</time>
      </trkpt>
      <trkpt lat="51.36208" lon="3.33844">
        <ele>-5.15</ele>
        <time>2018-01-28T11:06:46Z</time>
      </trkpt>
      <trkpt lat="51.36206" lon="3.33858">
        <ele>-5.15</ele>
        <time>2018-01-28T11:06:53Z</time>
      </trkpt>
      <trkpt lat="51.36207" lon="3.33871">
        <ele>-5.63</ele>
        <time>2018-01-28T11:06:59Z</time>
      </trkpt>
      <trkpt lat="51.36207" lon="3.33875">
        <ele>-5.63</ele>
        <time>2018-01-28T11:07:01Z</time>
      </trkpt>
      <trkpt lat="51.36201" lon="3.33905">
        <ele>-6.11</ele>
        <time>2018-01-28T11:07:16Z</time>
      </trkpt>
      <trkpt lat="51.36198" lon="3.33932">
        <ele>-5.63</ele>
        <time>2018-01-28T11:07:31Z</time>
      </trkpt>
      <trkpt lat="51.36188" lon="3.33963">
        <ele>-5.63</ele>
        <time>2018-01-28T11:07:49Z</time>
      </trkpt>
      <trkpt lat="51.36176" lon="3.33996">
        <ele>-4.67</ele>
        <time>2018-01-28T11:08:07Z</time>
      </trkpt>
      <trkpt lat="51.36167" lon="3.34032">
        <ele>-4.19</ele>
        <time>2018-01-28T11:08:27Z</time>
      </trkpt>
      <trkpt lat="51.36166" lon="3.34038">
        <ele>-4.19</ele>
        <time>2018-01-28T11:08:31Z</time>
      </trkpt>
      <trkpt lat="51.36167" lon="3.34045">
        <ele>-4.19</ele>
        <time>2018-01-28T11:08:35Z</time>
      </trkpt>
      <trkpt lat="51.36183" lon="3.34067">
        <ele>-3.71</ele>
        <time>2018-01-28T11:08:53Z</time>
      </trkpt>
      <trkpt lat="51.36207" lon="3.34087">
        <ele>-3.71</ele>
        <time>2018-01-28T11:09:13Z</time>
      </trkpt>
      <trkpt lat="51.36225" lon="3.34101">
        <ele>-3.23</ele>
        <time>2018-01-28T11:09:29Z</time>
      </trkpt>
      <trkpt lat="51.36245" lon="3.34116">
        <ele>-3.23</ele>
        <time>2018-01-28T11:09:45Z</time>
      </trkpt>
      <trkpt lat="51.36265" lon="3.34134">
        <ele>-2.75</ele>
        <time>2018-01-28T11:10:02Z</time>
      </trkpt>
      <trkpt lat="51.36289" lon="3.34153">
        <ele>-1.3</ele>
        <time>2018-01-28T11:10:21Z</time>
      </trkpt>
      <trkpt lat="51.36302" lon="3.34162">
        <ele>-2.27</ele>
        <time>2018-01-28T11:10:33Z</time>
      </trkpt>
      <trkpt lat="51.36306" lon="3.34165">
        <ele>-1.3</ele>
        <time>2018-01-28T11:10:36Z</time>
      </trkpt>
      <trkpt lat="51.36329" lon="3.34185">
        <ele>0.14</ele>
        <time>2018-01-28T11:10:55Z</time>
      </trkpt>
      <trkpt lat="51.3634" lon="3.34196">
        <ele>0.62</ele>
        <time>2018-01-28T11:11:04Z</time>
      </trkpt>
      <trkpt lat="51.36357" lon="3.3421">
        <ele>1.58</ele>
        <time>2018-01-28T11:11:18Z</time>
      </trkpt>
      <trkpt lat="51.36376" lon="3.34226">
        <ele>2.54</ele>
        <time>2018-01-28T11:11:35Z</time>
      </trkpt>
      <trkpt lat="51.36391" lon="3.3425">
        <ele>3.5</ele>
        <time>2018-01-28T11:11:52Z</time>
      </trkpt>
      <trkpt lat="51.36397" lon="3.34269">
        <ele>3.5</ele>
        <time>2018-01-28T11:12:05Z</time>
      </trkpt>
      <trkpt lat="51.36398" lon="3.34288">
        <ele>3.98</ele>
        <time>2018-01-28T11:12:15Z</time>
      </trkpt>
      <trkpt lat="51.36398" lon="3.34294">
        <ele>3.98</ele>
        <time>2018-01-28T11:12:18Z</time>
      </trkpt>
      <trkpt lat="51.36397" lon="3.34315">
        <ele>4.46</ele>
        <time>2018-01-28T11:12:29Z</time>
      </trkpt>
      <trkpt lat="51.36395" lon="3.34317">
        <ele>4.94</ele>
        <time>2018-01-28T11:12:31Z</time>
      </trkpt>
      <trkpt lat="51.36392" lon="3.34318">
        <ele>4.94</ele>
        <time>2018-01-28T11:12:34Z</time>
      </trkpt>
      <trkpt lat="51.36388" lon="3.3432">
        <ele>5.42</ele>
        <time>2018-01-28T11:12:40Z</time>
      </trkpt>
      <trkpt lat="51.36387" lon="3.34318">
        <ele>5.42</ele>
        <time>2018-01-28T11:12:59Z</time>
      </trkpt>
      <trkpt lat="51.36387" lon="3.34318">
        <ele>5.42</ele>
        <time>2018-01-28T11:13:08Z</time>
      </trkpt>
      <trkpt lat="51.36385" lon="3.34323">
        <ele>5.42</ele>
        <time>2018-01-28T11:13:29Z</time>
      </trkpt>
      <trkpt lat="51.36389" lon="3.34319">
        <ele>5.91</ele>
        <time>2018-01-28T11:13:49Z</time>
      </trkpt>
      <trkpt lat="51.3639" lon="3.34318">
        <ele>6.87</ele>
        <time>2018-01-28T11:13:51Z</time>
      </trkpt>
      <trkpt lat="51.36396" lon="3.34319">
        <ele>5.42</ele>
        <time>2018-01-28T11:13:59Z</time>
      </trkpt>
      <trkpt lat="51.36411" lon="3.34339">
        <ele>5.42</ele>
        <time>2018-01-28T11:14:17Z</time>
      </trkpt>
      <trkpt lat="51.36419" lon="3.3436">
        <ele>4.94</ele>
        <time>2018-01-28T11:14:30Z</time>
      </trkpt>
      <trkpt lat="51.36425" lon="3.34383">
        <ele>3.98</ele>
        <time>2018-01-28T11:14:43Z</time>
      </trkpt>
      <trkpt lat="51.36429" lon="3.344">
        <ele>5.42</ele>
        <time>2018-01-28T11:14:53Z</time>
      </trkpt>
      <trkpt lat="51.36436" lon="3.34429">
        <ele>4.46</ele>
        <time>2018-01-28T11:15:07Z</time>
      </trkpt>
      <trkpt lat="51.36441" lon="3.34445">
        <ele>5.91</ele>
        <time>2018-01-28T11:15:15Z</time>
      </trkpt>
      <trkpt lat="51.36449" lon="3.34478">
        <ele>3.98</ele>
        <time>2018-01-28T11:15:33Z</time>
      </trkpt>
      <trkpt lat="51.36456" lon="3.34515">
        <ele>3.5</ele>
        <time>2018-01-28T11:15:50Z</time>
      </trkpt>
      <trkpt lat="51.36465" lon="3.34547">
        <ele>3.02</ele>
        <time>2018-01-28T11:16:08Z</time>
      </trkpt>
      <trkpt lat="51.36474" lon="3.34586">
        <ele>2.54</ele>
        <time>2018-01-28T11:16:27Z</time>
      </trkpt>
      <trkpt lat="51.36472" lon="3.34621">
        <ele>1.58</ele>
        <time>2018-01-28T11:16:45Z</time>
      </trkpt>
      <trkpt lat="51.36471" lon="3.34625">
        <ele>2.54</ele>
        <time>2018-01-28T11:17:05Z</time>
      </trkpt>
      <trkpt lat="51.36465" lon="3.34654">
        <ele>2.54</ele>
        <time>2018-01-28T11:17:22Z</time>
      </trkpt>
      <trkpt lat="51.36465" lon="3.34661">
        <ele>2.54</ele>
        <time>2018-01-28T11:17:26Z</time>
      </trkpt>
      <trkpt lat="51.36463" lon="3.34665">
        <ele>3.02</ele>
        <time>2018-01-28T11:17:29Z</time>
      </trkpt>
      <trkpt lat="51.36457" lon="3.34668">
        <ele>2.06</ele>
        <time>2018-01-28T11:17:36Z</time>
      </trkpt>
      <trkpt lat="51.36456" lon="3.3467">
        <ele>3.5</ele>
        <time>2018-01-28T11:17:43Z</time>
      </trkpt>
      <trkpt lat="51.36456" lon="3.3467">
        <ele>2.06</ele>
        <time>2018-01-28T11:17:46Z</time>
      </trkpt>
      <trkpt lat="51.36457" lon="3.34673">
        <ele>3.5</ele>
        <time>2018-01-28T11:17:54Z</time>
      </trkpt>
      <trkpt lat="51.36459" lon="3.34677">
        <ele>3.5</ele>
        <time>2018-01-28T11:18:10Z</time>
      </trkpt>
      <trkpt lat="51.36461" lon="3.34685">
        <ele>3.5</ele>
        <time>2018-01-28T11:18:21Z</time>
      </trkpt>
      <trkpt lat="51.36463" lon="3.34693">
        <ele>2.06</ele>
        <time>2018-01-28T11:18:27Z</time>
      </trkpt>
      <trkpt lat="51.36463" lon="3.34709">
        <ele>2.06</ele>
        <time>2018-01-28T11:18:42Z</time>
      </trkpt>
      <trkpt lat="51.36463" lon="3.34709">
        <ele>3.5</ele>
        <time>2018-01-28T11:18:47Z</time>
      </trkpt>
      <trkpt lat="51.36463" lon="3.34712">
        <ele>3.5</ele>
        <time>2018-01-28T11:18:49Z</time>
      </trkpt>
      <trkpt lat="51.36479" lon="3.34732">
        <ele>-0.34</ele>
        <time>2018-01-28T11:19:05Z</time>
      </trkpt>
      <trkpt lat="51.3648" lon="3.34732">
        <ele>4.46</ele>
        <time>2018-01-28T11:19:06Z</time>
      </trkpt>
      <trkpt lat="51.36493" lon="3.34718">
        <ele>1.1</ele>
        <time>2018-01-28T11:19:19Z</time>
      </trkpt>
      <trkpt lat="51.36495" lon="3.34711">
        <ele>3.02</ele>
        <time>2018-01-28T11:19:25Z</time>
      </trkpt>
      <trkpt lat="51.36496" lon="3.34705">
        <ele>2.06</ele>
        <time>2018-01-28T11:19:42Z</time>
      </trkpt>
      <trkpt lat="51.365" lon="3.34681">
        <ele>2.06</ele>
        <time>2018-01-28T11:19:57Z</time>
      </trkpt>
      <trkpt lat="51.36506" lon="3.34649">
        <ele>3.02</ele>
        <time>2018-01-28T11:20:14Z</time>
      </trkpt>
      <trkpt lat="51.36507" lon="3.34632">
        <ele>2.06</ele>
        <time>2018-01-28T11:20:23Z</time>
      </trkpt>
      <trkpt lat="51.36508" lon="3.34613">
        <ele>3.5</ele>
        <time>2018-01-28T11:20:38Z</time>
      </trkpt>
      <trkpt lat="51.36508" lon="3.3461">
        <ele>0.62</ele>
        <time>2018-01-28T11:20:41Z</time>
      </trkpt>
      <trkpt lat="51.36508" lon="3.34606">
        <ele>2.06</ele>
        <time>2018-01-28T11:20:44Z</time>
      </trkpt>
      <trkpt lat="51.36501" lon="3.34569">
        <ele>1.58</ele>
        <time>2018-01-28T11:21:03Z</time>
      </trkpt>
      <trkpt lat="51.36495" lon="3.34541">
        <ele>2.54</ele>
        <time>2018-01-28T11:21:18Z</time>
      </trkpt>
      <trkpt lat="51.36489" lon="3.34505">
        <ele>3.02</ele>
        <time>2018-01-28T11:21:34Z</time>
      </trkpt>
      <trkpt lat="51.36483" lon="3.34469">
        <ele>3.02</ele>
        <time>2018-01-28T11:21:51Z</time>
      </trkpt>
      <trkpt lat="51.36476" lon="3.34437">
        <ele>4.46</ele>
        <time>2018-01-28T11:22:07Z</time>
      </trkpt>
      <trkpt lat="51.3647" lon="3.34406">
        <ele>4.46</ele>
        <time>2018-01-28T11:22:22Z</time>
      </trkpt>
      <trkpt lat="51.36469" lon="3.34402">
        <ele>3.02</ele>
        <time>2018-01-28T11:22:24Z</time>
      </trkpt>
      <trkpt lat="51.3646" lon="3.34365">
        <ele>3.02</ele>
        <time>2018-01-28T11:22:43Z</time>
      </trkpt>
      <trkpt lat="51.36458" lon="3.34359">
        <ele>4.46</ele>
        <time>2018-01-28T11:22:46Z</time>
      </trkpt>
      <trkpt lat="51.3645" lon="3.34328">
        <ele>3.98</ele>
        <time>2018-01-28T11:23:01Z</time>
      </trkpt>
      <trkpt lat="51.36442" lon="3.34294">
        <ele>3.5</ele>
        <time>2018-01-28T11:23:19Z</time>
      </trkpt>
      <trkpt lat="51.3644" lon="3.34282">
        <ele>4.46</ele>
        <time>2018-01-28T11:23:25Z</time>
      </trkpt>
      <trkpt lat="51.36432" lon="3.34246">
        <ele>4.46</ele>
        <time>2018-01-28T11:23:42Z</time>
      </trkpt>
      <trkpt lat="51.36428" lon="3.34213">
        <ele>3.02</ele>
        <time>2018-01-28T11:23:59Z</time>
      </trkpt>
      <trkpt lat="51.36419" lon="3.34178">
        <ele>3.5</ele>
        <time>2018-01-28T11:24:17Z</time>
      </trkpt>
      <trkpt lat="51.36411" lon="3.34144">
        <ele>3.5</ele>
        <time>2018-01-28T11:24:35Z</time>
      </trkpt>
      <trkpt lat="51.36401" lon="3.3411">
        <ele>3.5</ele>
        <time>2018-01-28T11:24:54Z</time>
      </trkpt>
      <trkpt lat="51.36393" lon="3.34072">
        <ele>3.02</ele>
        <time>2018-01-28T11:25:14Z</time>
      </trkpt>
      <trkpt lat="51.36388" lon="3.34055">
        <ele>4.46</ele>
        <time>2018-01-28T11:25:23Z</time>
      </trkpt>
      <trkpt lat="51.36387" lon="3.3405">
        <ele>3.02</ele>
        <time>2018-01-28T11:25:26Z</time>
      </trkpt>
      <trkpt lat="51.36378" lon="3.34015">
        <ele>3.02</ele>
        <time>2018-01-28T11:25:43Z</time>
      </trkpt>
      <trkpt lat="51.36368" lon="3.33977">
        <ele>3.02</ele>
        <time>2018-01-28T11:26:04Z</time>
      </trkpt>
      <trkpt lat="51.36358" lon="3.33938">
        <ele>3.02</ele>
        <time>2018-01-28T11:26:25Z</time>
      </trkpt>
      <trkpt lat="51.36351" lon="3.33906">
        <ele>3.5</ele>
        <time>2018-01-28T11:26:42Z</time>
      </trkpt>
      <trkpt lat="51.36348" lon="3.33892">
        <ele>4.46</ele>
        <time>2018-01-28T11:26:49Z</time>
      </trkpt>
      <trkpt lat="51.36343" lon="3.3387">
        <ele>3.5</ele>
        <time>2018-01-28T11:26:59Z</time>
      </trkpt>
      <trkpt lat="51.36334" lon="3.33838">
        <ele>3.5</ele>
        <time>2018-01-28T11:27:16Z</time>
      </trkpt>
      <trkpt lat="51.36329" lon="3.33817">
        <ele>4.46</ele>
        <time>2018-01-28T11:27:27Z</time>
      </trkpt>
      <trkpt lat="51.36321" lon="3.33781">
        <ele>3.5</ele>
        <time>2018-01-28T11:27:45Z</time>
      </trkpt>
      <trkpt lat="51.36311" lon="3.33739">
        <ele>3.02</ele>
        <time>2018-01-28T11:28:07Z</time>
      </trkpt>
      <trkpt lat="51.36308" lon="3.33712">
        <ele>3.02</ele>
        <time>2018-01-28T11:28:22Z</time>
      </trkpt>
      <trkpt lat="51.36303" lon="3.33678">
        <ele>3.02</ele>
        <time>2018-01-28T11:28:38Z</time>
      </trkpt>
      <trkpt lat="51.36297" lon="3.33656">
        <ele>4.46</ele>
        <time>2018-01-28T11:28:49Z</time>
      </trkpt>
      <trkpt lat="51.3629" lon="3.33629">
        <ele>4.46</ele>
        <time>2018-01-28T11:29:04Z</time>
      </trkpt>
      <trkpt lat="51.36282" lon="3.33596">
        <ele>4.46</ele>
        <time>2018-01-28T11:29:19Z</time>
      </trkpt>
      <trkpt lat="51.36273" lon="3.33558">
        <ele>4.46</ele>
        <time>2018-01-28T11:29:39Z</time>
      </trkpt>
      <trkpt lat="51.36264" lon="3.33519">
        <ele>4.46</ele>
        <time>2018-01-28T11:29:59Z</time>
      </trkpt>
      <trkpt lat="51.36255" lon="3.33478">
        <ele>4.46</ele>
        <time>2018-01-28T11:30:19Z</time>
      </trkpt>
      <trkpt lat="51.36245" lon="3.33446">
        <ele>4.46</ele>
        <time>2018-01-28T11:30:36Z</time>
      </trkpt>
      <trkpt lat="51.36237" lon="3.33406">
        <ele>3.5</ele>
        <time>2018-01-28T11:30:55Z</time>
      </trkpt>
      <trkpt lat="51.36227" lon="3.3337">
        <ele>3.5</ele>
        <time>2018-01-28T11:31:14Z</time>
      </trkpt>
      <trkpt lat="51.36227" lon="3.33368">
        <ele>3.5</ele>
        <time>2018-01-28T11:31:15Z</time>
      </trkpt>
      <trkpt lat="51.36221" lon="3.33337">
        <ele>4.46</ele>
        <time>2018-01-28T11:31:31Z</time>
      </trkpt>
      <trkpt lat="51.36214" lon="3.33307">
        <ele>3.02</ele>
        <time>2018-01-28T11:31:46Z</time>
      </trkpt>
      <trkpt lat="51.36209" lon="3.3329">
        <ele>3.98</ele>
        <time>2018-01-28T11:31:55Z</time>
      </trkpt>
      <trkpt lat="51.36205" lon="3.33266">
        <ele>3.5</ele>
        <time>2018-01-28T11:32:07Z</time>
      </trkpt>
      <trkpt lat="51.36197" lon="3.33233">
        <ele>3.02</ele>
        <time>2018-01-28T11:32:24Z</time>
      </trkpt>
      <trkpt lat="51.36188" lon="3.33203">
        <ele>2.54</ele>
        <time>2018-01-28T11:32:40Z</time>
      </trkpt>
      <trkpt lat="51.36179" lon="3.33164">
        <ele>4.46</ele>
        <time>2018-01-28T11:32:59Z</time>
      </trkpt>
      <trkpt lat="51.36178" lon="3.33156">
        <ele>3.02</ele>
        <time>2018-01-28T11:33:03Z</time>
      </trkpt>
      <trkpt lat="51.3617" lon="3.33118">
        <ele>3.5</ele>
        <time>2018-01-28T11:33:21Z</time>
      </trkpt>
      <trkpt lat="51.36171" lon="3.33083">
        <ele>3.02</ele>
        <time>2018-01-28T11:33:38Z</time>
      </trkpt>
      <trkpt lat="51.36175" lon="3.33058">
        <ele>4.94</ele>
        <time>2018-01-28T11:33:51Z</time>
      </trkpt>
      <trkpt lat="51.36173" lon="3.33028">
        <ele>3.5</ele>
        <time>2018-01-28T11:34:05Z</time>
      </trkpt>
      <trkpt lat="51.36165" lon="3.32987">
        <ele>3.5</ele>
        <time>2018-01-28T11:34:26Z</time>
      </trkpt>
      <trkpt lat="51.36154" lon="3.32941">
        <ele>3.5</ele>
        <time>2018-01-28T11:34:48Z</time>
      </trkpt>
      <trkpt lat="51.36145" lon="3.32904">
        <ele>3.5</ele>
        <time>2018-01-28T11:35:06Z</time>
      </trkpt>
      <trkpt lat="51.36136" lon="3.32867">
        <ele>3.5</ele>
        <time>2018-01-28T11:35:24Z</time>
      </trkpt>
      <trkpt lat="51.36127" lon="3.32831">
        <ele>3.5</ele>
        <time>2018-01-28T11:35:43Z</time>
      </trkpt>
      <trkpt lat="51.36118" lon="3.32796">
        <ele>4.46</ele>
        <time>2018-01-28T11:36:02Z</time>
      </trkpt>
      <trkpt lat="51.36109" lon="3.32762">
        <ele>4.46</ele>
        <time>2018-01-28T11:36:19Z</time>
      </trkpt>
      <trkpt lat="51.36102" lon="3.32731">
        <ele>4.46</ele>
        <time>2018-01-28T11:36:35Z</time>
      </trkpt>
      <trkpt lat="51.361" lon="3.32721">
        <ele>4.46</ele>
        <time>2018-01-28T11:36:40Z</time>
      </trkpt>
      <trkpt lat="51.3609" lon="3.32687">
        <ele>4.46</ele>
        <time>2018-01-28T11:36:58Z</time>
      </trkpt>
      <trkpt lat="51.36083" lon="3.32659">
        <ele>4.94</ele>
        <time>2018-01-28T11:37:13Z</time>
      </trkpt>
      <trkpt lat="51.36075" lon="3.32624">
        <ele>4.94</ele>
        <time>2018-01-28T11:37:31Z</time>
      </trkpt>
      <trkpt lat="51.36068" lon="3.32588">
        <ele>5.42</ele>
        <time>2018-01-28T11:37:49Z</time>
      </trkpt>
      <trkpt lat="51.36061" lon="3.32555">
        <ele>5.42</ele>
        <time>2018-01-28T11:38:04Z</time>
      </trkpt>
      <trkpt lat="51.36055" lon="3.32521">
        <ele>3.98</ele>
        <time>2018-01-28T11:38:21Z</time>
      </trkpt>
      <trkpt lat="51.36051" lon="3.32505">
        <ele>7.83</ele>
        <time>2018-01-28T11:38:30Z</time>
      </trkpt>
      <trkpt lat="51.36051" lon="3.32503">
        <ele>7.83</ele>
        <time>2018-01-28T11:38:31Z</time>
      </trkpt>
      <trkpt lat="51.3605" lon="3.32499">
        <ele>5.91</ele>
        <time>2018-01-28T11:38:33Z</time>
      </trkpt>
      <trkpt lat="51.36044" lon="3.3246">
        <ele>4.94</ele>
        <time>2018-01-28T11:38:52Z</time>
      </trkpt>
      <trkpt lat="51.36043" lon="3.32455">
        <ele>6.39</ele>
        <time>2018-01-28T11:38:54Z</time>
      </trkpt>
      <trkpt lat="51.36037" lon="3.32428">
        <ele>5.42</ele>
        <time>2018-01-28T11:39:08Z</time>
      </trkpt>
      <trkpt lat="51.36037" lon="3.32417">
        <ele>5.42</ele>
        <time>2018-01-28T11:39:14Z</time>
      </trkpt>
      <trkpt lat="51.36034" lon="3.324">
        <ele>5.91</ele>
        <time>2018-01-28T11:39:23Z</time>
      </trkpt>
      <trkpt lat="51.36028" lon="3.32365">
        <ele>5.91</ele>
        <time>2018-01-28T11:39:41Z</time>
      </trkpt>
      <trkpt lat="51.36027" lon="3.32361">
        <ele>4.94</ele>
        <time>2018-01-28T11:39:44Z</time>
      </trkpt>
      <trkpt lat="51.3602" lon="3.32329">
        <ele>5.91</ele>
        <time>2018-01-28T11:40:01Z</time>
      </trkpt>
      <trkpt lat="51.36015" lon="3.32309">
        <ele>5.91</ele>
        <time>2018-01-28T11:40:12Z</time>
      </trkpt>
      <trkpt lat="51.3601" lon="3.32278">
        <ele>6.87</ele>
        <time>2018-01-28T11:40:28Z</time>
      </trkpt>
      <trkpt lat="51.3601" lon="3.32275">
        <ele>6.87</ele>
        <time>2018-01-28T11:40:30Z</time>
      </trkpt>
      <trkpt lat="51.36004" lon="3.32238">
        <ele>6.87</ele>
        <time>2018-01-28T11:40:48Z</time>
      </trkpt>
      <trkpt lat="51.35998" lon="3.32201">
        <ele>5.42</ele>
        <time>2018-01-28T11:41:06Z</time>
      </trkpt>
      <trkpt lat="51.35997" lon="3.32199">
        <ele>5.42</ele>
        <time>2018-01-28T11:41:07Z</time>
      </trkpt>
      <trkpt lat="51.35996" lon="3.32191">
        <ele>6.87</ele>
        <time>2018-01-28T11:41:11Z</time>
      </trkpt>
      <trkpt lat="51.35996" lon="3.32188">
        <ele>4.94</ele>
        <time>2018-01-28T11:41:13Z</time>
      </trkpt>
      <trkpt lat="51.35994" lon="3.32175">
        <ele>6.39</ele>
        <time>2018-01-28T11:41:19Z</time>
      </trkpt>
      <trkpt lat="51.35988" lon="3.32145">
        <ele>7.35</ele>
        <time>2018-01-28T11:41:34Z</time>
      </trkpt>
      <trkpt lat="51.35983" lon="3.32113">
        <ele>5.91</ele>
        <time>2018-01-28T11:41:50Z</time>
      </trkpt>
      <trkpt lat="51.35979" lon="3.3208">
        <ele>5.91</ele>
        <time>2018-01-28T11:42:06Z</time>
      </trkpt>
      <trkpt lat="51.35977" lon="3.32055">
        <ele>7.35</ele>
        <time>2018-01-28T11:42:17Z</time>
      </trkpt>
      <trkpt lat="51.35976" lon="3.32038">
        <ele>6.39</ele>
        <time>2018-01-28T11:42:25Z</time>
      </trkpt>
      <trkpt lat="51.35975" lon="3.32017">
        <ele>5.42</ele>
        <time>2018-01-28T11:42:35Z</time>
      </trkpt>
      <trkpt lat="51.35974" lon="3.31983">
        <ele>5.42</ele>
        <time>2018-01-28T11:42:50Z</time>
      </trkpt>
      <trkpt lat="51.35973" lon="3.31976">
        <ele>6.87</ele>
        <time>2018-01-28T11:42:53Z</time>
      </trkpt>
      <trkpt lat="51.35969" lon="3.31942">
        <ele>5.42</ele>
        <time>2018-01-28T11:43:11Z</time>
      </trkpt>
      <trkpt lat="51.35969" lon="3.3194">
        <ele>5.42</ele>
        <time>2018-01-28T11:43:12Z</time>
      </trkpt>
      <trkpt lat="51.35968" lon="3.31903">
        <ele>5.42</ele>
        <time>2018-01-28T11:43:28Z</time>
      </trkpt>
      <trkpt lat="51.35967" lon="3.31886">
        <ele>6.87</ele>
        <time>2018-01-28T11:43:37Z</time>
      </trkpt>
      <trkpt lat="51.35964" lon="3.31849">
        <ele>6.87</ele>
        <time>2018-01-28T11:43:55Z</time>
      </trkpt>
      <trkpt lat="51.35963" lon="3.31811">
        <ele>6.87</ele>
        <time>2018-01-28T11:44:13Z</time>
      </trkpt>
      <trkpt lat="51.35963" lon="3.31805">
        <ele>6.87</ele>
        <time>2018-01-28T11:44:16Z</time>
      </trkpt>
      <trkpt lat="51.35964" lon="3.31799">
        <ele>5.42</ele>
        <time>2018-01-28T11:44:19Z</time>
      </trkpt>
      <trkpt lat="51.35965" lon="3.31781">
        <ele>6.87</ele>
        <time>2018-01-28T11:44:27Z</time>
      </trkpt>
      <trkpt lat="51.35961" lon="3.31753">
        <ele>6.39</ele>
        <time>2018-01-28T11:44:42Z</time>
      </trkpt>
      <trkpt lat="51.35961" lon="3.31726">
        <ele>5.91</ele>
        <time>2018-01-28T11:44:55Z</time>
      </trkpt>
      <trkpt lat="51.3596" lon="3.31717">
        <ele>10.23</ele>
        <time>2018-01-28T11:44:59Z</time>
      </trkpt>
      <trkpt lat="51.3596" lon="3.31715">
        <ele>6.39</ele>
        <time>2018-01-28T11:45:00Z</time>
      </trkpt>
      <trkpt lat="51.35958" lon="3.31682">
        <ele>5.91</ele>
        <time>2018-01-28T11:45:17Z</time>
      </trkpt>
      <trkpt lat="51.35956" lon="3.31665">
        <ele>7.83</ele>
        <time>2018-01-28T11:45:25Z</time>
      </trkpt>
      <trkpt lat="51.35954" lon="3.31649">
        <ele>6.87</ele>
        <time>2018-01-28T11:45:33Z</time>
      </trkpt>
      <trkpt lat="51.35953" lon="3.31643">
        <ele>8.31</ele>
        <time>2018-01-28T11:45:36Z</time>
      </trkpt>
      <trkpt lat="51.35951" lon="3.31625">
        <ele>6.39</ele>
        <time>2018-01-28T11:45:45Z</time>
      </trkpt>
      <trkpt lat="51.35945" lon="3.31593">
        <ele>5.42</ele>
        <time>2018-01-28T11:46:02Z</time>
      </trkpt>
      <trkpt lat="51.35939" lon="3.31562">
        <ele>6.87</ele>
        <time>2018-01-28T11:46:18Z</time>
      </trkpt>
      <trkpt lat="51.35936" lon="3.31544">
        <ele>5.91</ele>
        <time>2018-01-28T11:46:28Z</time>
      </trkpt>
      <trkpt lat="51.35935" lon="3.31536">
        <ele>8.31</ele>
        <time>2018-01-28T11:46:32Z</time>
      </trkpt>
      <trkpt lat="51.35933" lon="3.31526">
        <ele>6.87</ele>
        <time>2018-01-28T11:46:37Z</time>
      </trkpt>
      <trkpt lat="51.35927" lon="3.31492">
        <ele>5.91</ele>
        <time>2018-01-28T11:46:54Z</time>
      </trkpt>
      <trkpt lat="51.35923" lon="3.31473">
        <ele>5.91</ele>
        <time>2018-01-28T11:47:04Z</time>
      </trkpt>
      <trkpt lat="51.35921" lon="3.31462">
        <ele>5.91</ele>
        <time>2018-01-28T11:47:09Z</time>
      </trkpt>
      <trkpt lat="51.3591" lon="3.31418">
        <ele>5.91</ele>
        <time>2018-01-28T11:47:32Z</time>
      </trkpt>
      <trkpt lat="51.35901" lon="3.31382">
        <ele>4.94</ele>
        <time>2018-01-28T11:47:51Z</time>
      </trkpt>
      <trkpt lat="51.35899" lon="3.31374">
        <ele>4.94</ele>
        <time>2018-01-28T11:47:55Z</time>
      </trkpt>
      <trkpt lat="51.35896" lon="3.31366">
        <ele>4.94</ele>
        <time>2018-01-28T11:48:00Z</time>
      </trkpt>
      <trkpt lat="51.35894" lon="3.3136">
        <ele>6.39</ele>
        <time>2018-01-28T11:48:03Z</time>
      </trkpt>
      <trkpt lat="51.35891" lon="3.31345">
        <ele>4.94</ele>
        <time>2018-01-28T11:48:11Z</time>
      </trkpt>
      <trkpt lat="51.35882" lon="3.3131">
        <ele>5.91</ele>
        <time>2018-01-28T11:48:29Z</time>
      </trkpt>
      <trkpt lat="51.35877" lon="3.31281">
        <ele>6.39</ele>
        <time>2018-01-28T11:48:43Z</time>
      </trkpt>
      <trkpt lat="51.35869" lon="3.31245">
        <ele>7.35</ele>
        <time>2018-01-28T11:49:02Z</time>
      </trkpt>
      <trkpt lat="51.35867" lon="3.31231">
        <ele>5.91</ele>
        <time>2018-01-28T11:49:08Z</time>
      </trkpt>
      <trkpt lat="51.35857" lon="3.31197">
        <ele>4.94</ele>
        <time>2018-01-28T11:49:25Z</time>
      </trkpt>
      <trkpt lat="51.35849" lon="3.31171">
        <ele>6.39</ele>
        <time>2018-01-28T11:49:40Z</time>
      </trkpt>
      <trkpt lat="51.35839" lon="3.31128">
        <ele>5.42</ele>
        <time>2018-01-28T11:50:01Z</time>
      </trkpt>
      <trkpt lat="51.35831" lon="3.31097">
        <ele>4.94</ele>
        <time>2018-01-28T11:50:16Z</time>
      </trkpt>
      <trkpt lat="51.35821" lon="3.31063">
        <ele>4.94</ele>
        <time>2018-01-28T11:50:35Z</time>
      </trkpt>
      <trkpt lat="51.35819" lon="3.31055">
        <ele>4.94</ele>
        <time>2018-01-28T11:50:39Z</time>
      </trkpt>
      <trkpt lat="51.35813" lon="3.31019">
        <ele>4.94</ele>
        <time>2018-01-28T11:50:56Z</time>
      </trkpt>
      <trkpt lat="51.35805" lon="3.30989">
        <ele>4.94</ele>
        <time>2018-01-28T11:51:11Z</time>
      </trkpt>
      <trkpt lat="51.35797" lon="3.30957">
        <ele>6.39</ele>
        <time>2018-01-28T11:51:28Z</time>
      </trkpt>
      <trkpt lat="51.35796" lon="3.30953">
        <ele>4.46</ele>
        <time>2018-01-28T11:51:30Z</time>
      </trkpt>
      <trkpt lat="51.35787" lon="3.30919">
        <ele>5.91</ele>
        <time>2018-01-28T11:51:48Z</time>
      </trkpt>
      <trkpt lat="51.35779" lon="3.30886">
        <ele>5.91</ele>
        <time>2018-01-28T11:52:04Z</time>
      </trkpt>
      <trkpt lat="51.3577" lon="3.30857">
        <ele>5.91</ele>
        <time>2018-01-28T11:52:19Z</time>
      </trkpt>
      <trkpt lat="51.35768" lon="3.30851">
        <ele>5.91</ele>
        <time>2018-01-28T11:52:22Z</time>
      </trkpt>
      <trkpt lat="51.35766" lon="3.30836">
        <ele>4.46</ele>
        <time>2018-01-28T11:52:29Z</time>
      </trkpt>
      <trkpt lat="51.35755" lon="3.30793">
        <ele>4.46</ele>
        <time>2018-01-28T11:52:51Z</time>
      </trkpt>
      <trkpt lat="51.35747" lon="3.30764">
        <ele>3.98</ele>
        <time>2018-01-28T11:53:07Z</time>
      </trkpt>
      <trkpt lat="51.35741" lon="3.30729">
        <ele>4.94</ele>
        <time>2018-01-28T11:53:23Z</time>
      </trkpt>
      <trkpt lat="51.35732" lon="3.30694">
        <ele>3.98</ele>
        <time>2018-01-28T11:53:42Z</time>
      </trkpt>
      <trkpt lat="51.35729" lon="3.30689">
        <ele>3.98</ele>
        <time>2018-01-28T11:53:46Z</time>
      </trkpt>
      <trkpt lat="51.35716" lon="3.30656">
        <ele>3.98</ele>
        <time>2018-01-28T11:54:04Z</time>
      </trkpt>
      <trkpt lat="51.35707" lon="3.30629">
        <ele>3.98</ele>
        <time>2018-01-28T11:54:20Z</time>
      </trkpt>
      <trkpt lat="51.35699" lon="3.30599">
        <ele>5.42</ele>
        <time>2018-01-28T11:54:36Z</time>
      </trkpt>
      <trkpt lat="51.35694" lon="3.3058">
        <ele>3.98</ele>
        <time>2018-01-28T11:54:45Z</time>
      </trkpt>
      <trkpt lat="51.35686" lon="3.30546">
        <ele>3.02</ele>
        <time>2018-01-28T11:55:02Z</time>
      </trkpt>
      <trkpt lat="51.3568" lon="3.30524">
        <ele>3.02</ele>
        <time>2018-01-28T11:55:13Z</time>
      </trkpt>
      <trkpt lat="51.35673" lon="3.30497">
        <ele>4.46</ele>
        <time>2018-01-28T11:55:27Z</time>
      </trkpt>
      <trkpt lat="51.35668" lon="3.30466">
        <ele>3.5</ele>
        <time>2018-01-28T11:55:42Z</time>
      </trkpt>
      <trkpt lat="51.35659" lon="3.30439">
        <ele>3.98</ele>
        <time>2018-01-28T11:55:58Z</time>
      </trkpt>
      <trkpt lat="51.3565" lon="3.30404">
        <ele>6.39</ele>
        <time>2018-01-28T11:56:16Z</time>
      </trkpt>
      <trkpt lat="51.35644" lon="3.30389">
        <ele>3.98</ele>
        <time>2018-01-28T11:56:24Z</time>
      </trkpt>
      <trkpt lat="51.35634" lon="3.30357">
        <ele>3.98</ele>
        <time>2018-01-28T11:56:41Z</time>
      </trkpt>
      <trkpt lat="51.35627" lon="3.30329">
        <ele>3.98</ele>
        <time>2018-01-28T11:56:55Z</time>
      </trkpt>
      <trkpt lat="51.35625" lon="3.30317">
        <ele>3.98</ele>
        <time>2018-01-28T11:57:01Z</time>
      </trkpt>
      <trkpt lat="51.35616" lon="3.3029">
        <ele>3.98</ele>
        <time>2018-01-28T11:57:17Z</time>
      </trkpt>
      <trkpt lat="51.35607" lon="3.30259">
        <ele>3.5</ele>
        <time>2018-01-28T11:57:32Z</time>
      </trkpt>
      <trkpt lat="51.35597" lon="3.30219">
        <ele>3.5</ele>
        <time>2018-01-28T11:57:51Z</time>
      </trkpt>
      <trkpt lat="51.35595" lon="3.30207">
        <ele>4.94</ele>
        <time>2018-01-28T11:57:57Z</time>
      </trkpt>
      <trkpt lat="51.35587" lon="3.30182">
        <ele>3.98</ele>
        <time>2018-01-28T11:58:13Z</time>
      </trkpt>
      <trkpt lat="51.3558" lon="3.3015">
        <ele>3.98</ele>
        <time>2018-01-28T11:58:28Z</time>
      </trkpt>
      <trkpt lat="51.35572" lon="3.30121">
        <ele>3.98</ele>
        <time>2018-01-28T11:58:44Z</time>
      </trkpt>
      <trkpt lat="51.35564" lon="3.30088">
        <ele>3.98</ele>
        <time>2018-01-28T11:59:01Z</time>
      </trkpt>
      <trkpt lat="51.35561" lon="3.30066">
        <ele>4.46</ele>
        <time>2018-01-28T11:59:13Z</time>
      </trkpt>
      <trkpt lat="51.3556" lon="3.3006">
        <ele>4.46</ele>
        <time>2018-01-28T11:59:16Z</time>
      </trkpt>
      <trkpt lat="51.35557" lon="3.30051">
        <ele>3.98</ele>
        <time>2018-01-28T11:59:22Z</time>
      </trkpt>
      <trkpt lat="51.35554" lon="3.30049">
        <ele>5.42</ele>
        <time>2018-01-28T11:59:25Z</time>
      </trkpt>
      <trkpt lat="51.35553" lon="3.30046">
        <ele>3.98</ele>
        <time>2018-01-28T11:59:27Z</time>
      </trkpt>
      <trkpt lat="51.35549" lon="3.30032">
        <ele>3.98</ele>
        <time>2018-01-28T11:59:35Z</time>
      </trkpt>
      <trkpt lat="51.35549" lon="3.3003">
        <ele>3.98</ele>
        <time>2018-01-28T11:59:36Z</time>
      </trkpt>
      <trkpt lat="51.35548" lon="3.30029">
        <ele>3.98</ele>
        <time>2018-01-28T11:59:37Z</time>
      </trkpt>
      <trkpt lat="51.3554" lon="3.30002">
        <ele>3.98</ele>
        <time>2018-01-28T11:59:53Z</time>
      </trkpt>
      <trkpt lat="51.35532" lon="3.29969">
        <ele>3.98</ele>
        <time>2018-01-28T12:00:09Z</time>
      </trkpt>
      <trkpt lat="51.35529" lon="3.29934">
        <ele>3.5</ele>
        <time>2018-01-28T12:00:27Z</time>
      </trkpt>
      <trkpt lat="51.35525" lon="3.29898">
        <ele>3.5</ele>
        <time>2018-01-28T12:00:45Z</time>
      </trkpt>
      <trkpt lat="51.35522" lon="3.29861">
        <ele>4.94</ele>
        <time>2018-01-28T12:01:03Z</time>
      </trkpt>
      <trkpt lat="51.35522" lon="3.29859">
        <ele>4.94</ele>
        <time>2018-01-28T12:01:04Z</time>
      </trkpt>
      <trkpt lat="51.35518" lon="3.29829">
        <ele>3.5</ele>
        <time>2018-01-28T12:01:18Z</time>
      </trkpt>
      <trkpt lat="51.35512" lon="3.29792">
        <ele>4.94</ele>
        <time>2018-01-28T12:01:34Z</time>
      </trkpt>
      <trkpt lat="51.35508" lon="3.29753">
        <ele>4.94</ele>
        <time>2018-01-28T12:01:52Z</time>
      </trkpt>
      <trkpt lat="51.35507" lon="3.29744">
        <ele>4.94</ele>
        <time>2018-01-28T12:01:56Z</time>
      </trkpt>
      <trkpt lat="51.35507" lon="3.29742">
        <ele>4.94</ele>
        <time>2018-01-28T12:01:57Z</time>
      </trkpt>
      <trkpt lat="51.35508" lon="3.29707">
        <ele>5.42</ele>
        <time>2018-01-28T12:02:13Z</time>
      </trkpt>
      <trkpt lat="51.35504" lon="3.29678">
        <ele>4.94</ele>
        <time>2018-01-28T12:02:29Z</time>
      </trkpt>
      <trkpt lat="51.35504" lon="3.29642">
        <ele>4.94</ele>
        <time>2018-01-28T12:02:46Z</time>
      </trkpt>
      <trkpt lat="51.35496" lon="3.29609">
        <ele>5.91</ele>
        <time>2018-01-28T12:03:03Z</time>
      </trkpt>
      <trkpt lat="51.35489" lon="3.29578">
        <ele>3.98</ele>
        <time>2018-01-28T12:03:19Z</time>
      </trkpt>
      <trkpt lat="51.35485" lon="3.29542">
        <ele>4.94</ele>
        <time>2018-01-28T12:03:36Z</time>
      </trkpt>
      <trkpt lat="51.35477" lon="3.29507">
        <ele>4.94</ele>
        <time>2018-01-28T12:03:55Z</time>
      </trkpt>
      <trkpt lat="51.35471" lon="3.29475">
        <ele>4.94</ele>
        <time>2018-01-28T12:04:12Z</time>
      </trkpt>
      <trkpt lat="51.35463" lon="3.29439">
        <ele>5.42</ele>
        <time>2018-01-28T12:04:29Z</time>
      </trkpt>
      <trkpt lat="51.35456" lon="3.29412">
        <ele>5.42</ele>
        <time>2018-01-28T12:04:44Z</time>
      </trkpt>
      <trkpt lat="51.35449" lon="3.29385">
        <ele>3.98</ele>
        <time>2018-01-28T12:04:59Z</time>
      </trkpt>
      <trkpt lat="51.35448" lon="3.29355">
        <ele>5.42</ele>
        <time>2018-01-28T12:05:13Z</time>
      </trkpt>
      <trkpt lat="51.35447" lon="3.29351">
        <ele>5.42</ele>
        <time>2018-01-28T12:05:15Z</time>
      </trkpt>
      <trkpt lat="51.35446" lon="3.29346">
        <ele>5.42</ele>
        <time>2018-01-28T12:05:18Z</time>
      </trkpt>
      <trkpt lat="51.35446" lon="3.29343">
        <ele>5.42</ele>
        <time>2018-01-28T12:05:19Z</time>
      </trkpt>
      <trkpt lat="51.35445" lon="3.29341">
        <ele>5.42</ele>
        <time>2018-01-28T12:05:20Z</time>
      </trkpt>
      <trkpt lat="51.35445" lon="3.29338">
        <ele>5.42</ele>
        <time>2018-01-28T12:05:21Z</time>
      </trkpt>
      <trkpt lat="51.35444" lon="3.29336">
        <ele>5.42</ele>
        <time>2018-01-28T12:05:22Z</time>
      </trkpt>
      <trkpt lat="51.35444" lon="3.29334">
        <ele>5.42</ele>
        <time>2018-01-28T12:05:23Z</time>
      </trkpt>
      <trkpt lat="51.35443" lon="3.29333">
        <ele>5.42</ele>
        <time>2018-01-28T12:05:24Z</time>
      </trkpt>
      <trkpt lat="51.35438" lon="3.29309">
        <ele>5.42</ele>
        <time>2018-01-28T12:05:37Z</time>
      </trkpt>
      <trkpt lat="51.35433" lon="3.29281">
        <ele>5.91</ele>
        <time>2018-01-28T12:05:51Z</time>
      </trkpt>
      <trkpt lat="51.3543" lon="3.29257">
        <ele>4.94</ele>
        <time>2018-01-28T12:06:03Z</time>
      </trkpt>
      <trkpt lat="51.35422" lon="3.29223">
        <ele>4.94</ele>
        <time>2018-01-28T12:06:19Z</time>
      </trkpt>
      <trkpt lat="51.35415" lon="3.29203">
        <ele>4.94</ele>
        <time>2018-01-28T12:06:30Z</time>
      </trkpt>
      <trkpt lat="51.35411" lon="3.29191">
        <ele>4.94</ele>
        <time>2018-01-28T12:06:37Z</time>
      </trkpt>
      <trkpt lat="51.35408" lon="3.29185">
        <ele>4.94</ele>
        <time>2018-01-28T12:06:44Z</time>
      </trkpt>
      <trkpt lat="51.35403" lon="3.2918">
        <ele>6.39</ele>
        <time>2018-01-28T12:06:50Z</time>
      </trkpt>
      <trkpt lat="51.35397" lon="3.29175">
        <ele>6.39</ele>
        <time>2018-01-28T12:07:00Z</time>
      </trkpt>
      <trkpt lat="51.35395" lon="3.29175">
        <ele>6.39</ele>
        <time>2018-01-28T12:07:01Z</time>
      </trkpt>
      <trkpt lat="51.35391" lon="3.29169">
        <ele>7.35</ele>
        <time>2018-01-28T12:07:18Z</time>
      </trkpt>
      <trkpt lat="51.35391" lon="3.29153">
        <ele>7.35</ele>
        <time>2018-01-28T12:07:32Z</time>
      </trkpt>
      <trkpt lat="51.3539" lon="3.29137">
        <ele>7.35</ele>
        <time>2018-01-28T12:07:47Z</time>
      </trkpt>
      <trkpt lat="51.35384" lon="3.29139">
        <ele>5.91</ele>
        <time>2018-01-28T12:07:57Z</time>
      </trkpt>
      <trkpt lat="51.35382" lon="3.29139">
        <ele>5.91</ele>
        <time>2018-01-28T12:07:59Z</time>
      </trkpt>
      <trkpt lat="51.3537" lon="3.29142">
        <ele>6.39</ele>
        <time>2018-01-28T12:08:12Z</time>
      </trkpt>
      <trkpt lat="51.35359" lon="3.29145">
        <ele>5.42</ele>
        <time>2018-01-28T12:08:24Z</time>
      </trkpt>
      <trkpt lat="51.35346" lon="3.2915">
        <ele>6.39</ele>
        <time>2018-01-28T12:08:36Z</time>
      </trkpt>
      <trkpt lat="51.35322" lon="3.29125">
        <ele>6.39</ele>
        <time>2018-01-28T12:08:53Z</time>
      </trkpt>
      <trkpt lat="51.35321" lon="3.29126">
        <ele>4.94</ele>
        <time>2018-01-28T12:08:54Z</time>
      </trkpt>
      <trkpt lat="51.35311" lon="3.29138">
        <ele>5.42</ele>
        <time>2018-01-28T12:09:07Z</time>
      </trkpt>
      <trkpt lat="51.35303" lon="3.29131">
        <ele>5.91</ele>
        <time>2018-01-28T12:09:24Z</time>
      </trkpt>
      <trkpt lat="51.35301" lon="3.29134">
        <ele>6.87</ele>
        <time>2018-01-28T12:09:46Z</time>
      </trkpt>
      <trkpt lat="51.35305" lon="3.29151">
        <ele>6.87</ele>
        <time>2018-01-28T12:09:53Z</time>
      </trkpt>
      <trkpt lat="51.35304" lon="3.29158">
        <ele>5.42</ele>
        <time>2018-01-28T12:09:56Z</time>
      </trkpt>
      <trkpt lat="51.35298" lon="3.29152">
        <ele>5.42</ele>
        <time>2018-01-28T12:10:08Z</time>
      </trkpt>
      <trkpt lat="51.35281" lon="3.29164">
        <ele>5.42</ele>
        <time>2018-01-28T12:10:23Z</time>
      </trkpt>
      <trkpt lat="51.35272" lon="3.2917">
        <ele>4.46</ele>
        <time>2018-01-28T12:10:33Z</time>
      </trkpt>
      <trkpt lat="51.35268" lon="3.29175">
        <ele>4.46</ele>
        <time>2018-01-28T12:10:35Z</time>
      </trkpt>
      <trkpt lat="51.35261" lon="3.29183">
        <ele>3.98</ele>
        <time>2018-01-28T12:10:43Z</time>
      </trkpt>
      <trkpt lat="51.35242" lon="3.29207">
        <ele>3.5</ele>
        <time>2018-01-28T12:10:58Z</time>
      </trkpt>
      <trkpt lat="51.35217" lon="3.2923">
        <ele>3.02</ele>
        <time>2018-01-28T12:11:17Z</time>
      </trkpt>
      <trkpt lat="51.35213" lon="3.2924">
        <ele>4.46</ele>
        <time>2018-01-28T12:11:23Z</time>
      </trkpt>
      <trkpt lat="51.3521" lon="3.29249">
        <ele>3.02</ele>
        <time>2018-01-28T12:11:28Z</time>
      </trkpt>
      <trkpt lat="51.35203" lon="3.2926">
        <ele>3.5</ele>
        <time>2018-01-28T12:11:36Z</time>
      </trkpt>
      <trkpt lat="51.35176" lon="3.29293">
        <ele>2.06</ele>
        <time>2018-01-28T12:11:58Z</time>
      </trkpt>
      <trkpt lat="51.35165" lon="3.2931">
        <ele>2.06</ele>
        <time>2018-01-28T12:12:15Z</time>
      </trkpt>
      <trkpt lat="51.35164" lon="3.29312">
        <ele>2.06</ele>
        <time>2018-01-28T12:12:17Z</time>
      </trkpt>
      <trkpt lat="51.35158" lon="3.29314">
        <ele>1.58</ele>
        <time>2018-01-28T12:12:29Z</time>
      </trkpt>
      <trkpt lat="51.35142" lon="3.29305">
        <ele>1.58</ele>
        <time>2018-01-28T12:12:46Z</time>
      </trkpt>
      <trkpt lat="51.35104" lon="3.29281">
        <ele>1.58</ele>
        <time>2018-01-28T12:13:05Z</time>
      </trkpt>
      <trkpt lat="51.351" lon="3.29267">
        <ele>-0.34</ele>
        <time>2018-01-28T12:13:12Z</time>
      </trkpt>
      <trkpt lat="51.35105" lon="3.29244">
        <ele>1.58</ele>
        <time>2018-01-28T12:13:22Z</time>
      </trkpt>
      <trkpt lat="51.35095" lon="3.29241">
        <ele>1.1</ele>
        <time>2018-01-28T12:13:35Z</time>
      </trkpt>
      <trkpt lat="51.3509" lon="3.29231">
        <ele>-2.27</ele>
        <time>2018-01-28T12:13:44Z</time>
      </trkpt>
      <trkpt lat="51.35089" lon="3.2923">
        <ele>-2.27</ele>
        <time>2018-01-28T12:13:45Z</time>
      </trkpt>
      <trkpt lat="51.35084" lon="3.29224">
        <ele>1.1</ele>
        <time>2018-01-28T12:13:51Z</time>
      </trkpt>
      <trkpt lat="51.35083" lon="3.29223">
        <ele>1.1</ele>
        <time>2018-01-28T12:13:52Z</time>
      </trkpt>
      <trkpt lat="51.35082" lon="3.29233">
        <ele>1.1</ele>
        <time>2018-01-28T12:14:07Z</time>
      </trkpt>
      <trkpt lat="51.35094" lon="3.2925">
        <ele>0.62</ele>
        <time>2018-01-28T12:14:30Z</time>
      </trkpt>
      <trkpt lat="51.35094" lon="3.29248">
        <ele>0.62</ele>
        <time>2018-01-28T12:14:39Z</time>
      </trkpt>
      <trkpt lat="51.35102" lon="3.29243">
        <ele>0.14</ele>
        <time>2018-01-28T12:14:47Z</time>
      </trkpt>
      <trkpt lat="51.35105" lon="3.2924">
        <ele>1.1</ele>
        <time>2018-01-28T12:14:50Z</time>
      </trkpt>
      <trkpt lat="51.35103" lon="3.29238">
        <ele>0.14</ele>
        <time>2018-01-28T12:15:10Z</time>
      </trkpt>
      <trkpt lat="51.35107" lon="3.29238">
        <ele>-0.34</ele>
        <time>2018-01-28T12:15:33Z</time>
      </trkpt>
      <trkpt lat="51.35112" lon="3.29233">
        <ele>1.1</ele>
        <time>2018-01-28T12:15:40Z</time>
      </trkpt>
      <trkpt lat="51.35119" lon="3.29235">
        <ele>0.62</ele>
        <time>2018-01-28T12:15:54Z</time>
      </trkpt>
      <trkpt lat="51.35116" lon="3.29234">
        <ele>2.54</ele>
        <time>2018-01-28T12:15:56Z</time>
      </trkpt>
      <trkpt lat="51.35115" lon="3.29234">
        <ele>1.58</ele>
        <time>2018-01-28T12:15:59Z</time>
      </trkpt>
      <trkpt lat="51.35106" lon="3.29235">
        <ele>1.58</ele>
        <time>2018-01-28T12:16:20Z</time>
      </trkpt>
      <trkpt lat="51.35107" lon="3.29238">
        <ele>1.58</ele>
        <time>2018-01-28T12:16:39Z</time>
      </trkpt>
      <trkpt lat="51.35113" lon="3.29233">
        <ele>2.06</ele>
        <time>2018-01-28T12:17:03Z</time>
      </trkpt>
      <trkpt lat="51.35106" lon="3.29236">
        <ele>2.54</ele>
        <time>2018-01-28T12:17:29Z</time>
      </trkpt>
      <trkpt lat="51.35099" lon="3.29246">
        <ele>1.1</ele>
        <time>2018-01-28T12:17:51Z</time>
      </trkpt>
      <trkpt lat="51.35099" lon="3.29244">
        <ele>2.54</ele>
        <time>2018-01-28T12:17:57Z</time>
      </trkpt>
      <trkpt lat="51.35102" lon="3.29244">
        <ele>2.54</ele>
        <time>2018-01-28T12:18:05Z</time>
      </trkpt>
      <trkpt lat="51.3511" lon="3.2924">
        <ele>2.54</ele>
        <time>2018-01-28T12:18:24Z</time>
      </trkpt>
      <trkpt lat="51.35109" lon="3.29238">
        <ele>2.06</ele>
        <time>2018-01-28T12:18:38Z</time>
      </trkpt>
      <trkpt lat="51.35102" lon="3.2924">
        <ele>3.5</ele>
        <time>2018-01-28T12:19:09Z</time>
      </trkpt>
      <trkpt lat="51.35103" lon="3.29242">
        <ele>3.98</ele>
        <time>2018-01-28T12:19:33Z</time>
      </trkpt>
      <trkpt lat="51.35104" lon="3.29243">
        <ele>3.02</ele>
        <time>2018-01-28T12:19:57Z</time>
      </trkpt>
      <trkpt lat="51.35108" lon="3.29245">
        <ele>3.98</ele>
        <time>2018-01-28T12:20:27Z</time>
      </trkpt>
      <trkpt lat="51.35109" lon="3.29244">
        <ele>3.02</ele>
        <time>2018-01-28T12:20:34Z</time>
      </trkpt>
      <trkpt lat="51.35113" lon="3.29241">
        <ele>3.02</ele>
        <time>2018-01-28T12:20:46Z</time>
      </trkpt>
      <trkpt lat="51.35111" lon="3.29242">
        <ele>2.06</ele>
        <time>2018-01-28T12:21:08Z</time>
      </trkpt>
      <trkpt lat="51.35111" lon="3.29243">
        <ele>3.98</ele>
        <time>2018-01-28T12:21:15Z</time>
      </trkpt>
      <trkpt lat="51.35113" lon="3.29241">
        <ele>2.06</ele>
        <time>2018-01-28T12:21:44Z</time>
      </trkpt>
      <trkpt lat="51.35108" lon="3.29241">
        <ele>2.06</ele>
        <time>2018-01-28T12:22:04Z</time>
      </trkpt>
      <trkpt lat="51.35103" lon="3.29241">
        <ele>3.5</ele>
        <time>2018-01-28T12:22:16Z</time>
      </trkpt>
      <trkpt lat="51.35103" lon="3.29241">
        <ele>2.54</ele>
        <time>2018-01-28T12:22:23Z</time>
      </trkpt>
      <trkpt lat="51.35105" lon="3.29241">
        <ele>2.06</ele>
        <time>2018-01-28T12:22:41Z</time>
      </trkpt>
      <trkpt lat="51.35098" lon="3.29242">
        <ele>2.54</ele>
        <time>2018-01-28T12:22:56Z</time>
      </trkpt>
      <trkpt lat="51.35101" lon="3.29244">
        <ele>3.02</ele>
        <time>2018-01-28T12:23:03Z</time>
      </trkpt>
      <trkpt lat="51.35105" lon="3.2924">
        <ele>3.98</ele>
        <time>2018-01-28T12:23:07Z</time>
      </trkpt>
      <trkpt lat="51.351" lon="3.2924">
        <ele>2.54</ele>
        <time>2018-01-28T12:23:35Z</time>
      </trkpt>
      <trkpt lat="51.35098" lon="3.29239">
        <ele>2.54</ele>
        <time>2018-01-28T12:24:02Z</time>
      </trkpt>
      <trkpt lat="51.35114" lon="3.2924">
        <ele>2.54</ele>
        <time>2018-01-28T12:24:30Z</time>
      </trkpt>
      <trkpt lat="51.35111" lon="3.2924">
        <ele>3.98</ele>
        <time>2018-01-28T12:24:41Z</time>
      </trkpt>
      <trkpt lat="51.35108" lon="3.29242">
        <ele>2.06</ele>
        <time>2018-01-28T12:24:49Z</time>
      </trkpt>
      <trkpt lat="51.35106" lon="3.29252">
        <ele>3.02</ele>
        <time>2018-01-28T12:25:14Z</time>
      </trkpt>
      <trkpt lat="51.351" lon="3.29249">
        <ele>3.5</ele>
        <time>2018-01-28T12:25:41Z</time>
      </trkpt>
      <trkpt lat="51.35101" lon="3.29246">
        <ele>3.5</ele>
        <time>2018-01-28T12:26:16Z</time>
      </trkpt>
      <trkpt lat="51.35102" lon="3.29239">
        <ele>3.98</ele>
        <time>2018-01-28T12:26:49Z</time>
      </trkpt>
      <trkpt lat="51.35111" lon="3.29241">
        <ele>3.98</ele>
        <time>2018-01-28T12:27:20Z</time>
      </trkpt>
      <trkpt lat="51.35115" lon="3.2924">
        <ele>2.54</ele>
        <time>2018-01-28T12:27:28Z</time>
      </trkpt>
      <trkpt lat="51.35119" lon="3.2924">
        <ele>2.54</ele>
        <time>2018-01-28T12:28:13Z</time>
      </trkpt>
      <trkpt lat="51.35127" lon="3.29243">
        <ele>2.54</ele>
        <time>2018-01-28T12:28:28Z</time>
      </trkpt>
      <trkpt lat="51.35123" lon="3.2924">
        <ele>3.5</ele>
        <time>2018-01-28T12:29:09Z</time>
      </trkpt>
      <trkpt lat="51.35119" lon="3.29241">
        <ele>3.5</ele>
        <time>2018-01-28T12:29:34Z</time>
      </trkpt>
      <trkpt lat="51.35121" lon="3.29243">
        <ele>3.5</ele>
        <time>2018-01-28T12:30:09Z</time>
      </trkpt>
      <trkpt lat="51.35122" lon="3.2924">
        <ele>2.06</ele>
        <time>2018-01-28T12:30:43Z</time>
      </trkpt>
      <trkpt lat="51.35108" lon="3.29243">
        <ele>3.5</ele>
        <time>2018-01-28T12:31:17Z</time>
      </trkpt>
      <trkpt lat="51.35107" lon="3.29243">
        <ele>3.5</ele>
        <time>2018-01-28T12:31:45Z</time>
      </trkpt>
      <trkpt lat="51.35111" lon="3.29238">
        <ele>2.06</ele>
        <time>2018-01-28T12:32:04Z</time>
      </trkpt>
      <trkpt lat="51.35107" lon="3.29235">
        <ele>3.5</ele>
        <time>2018-01-28T12:32:40Z</time>
      </trkpt>
      <trkpt lat="51.35105" lon="3.29237">
        <ele>3.5</ele>
        <time>2018-01-28T12:33:07Z</time>
      </trkpt>
      <trkpt lat="51.35104" lon="3.29237">
        <ele>3.5</ele>
        <time>2018-01-28T12:33:25Z</time>
      </trkpt>
      <trkpt lat="51.35104" lon="3.29238">
        <ele>3.98</ele>
        <time>2018-01-28T12:33:47Z</time>
      </trkpt>
      <trkpt lat="51.35104" lon="3.29238">
        <ele>2.54</ele>
        <time>2018-01-28T12:33:49Z</time>
      </trkpt>
      <trkpt lat="51.35102" lon="3.29239">
        <ele>3.5</ele>
        <time>2018-01-28T12:33:57Z</time>
      </trkpt>
      <trkpt lat="51.35098" lon="3.29238">
        <ele>2.06</ele>
        <time>2018-01-28T12:34:19Z</time>
      </trkpt>
      <trkpt lat="51.35097" lon="3.29238">
        <ele>3.5</ele>
        <time>2018-01-28T12:34:24Z</time>
      </trkpt>
      <trkpt lat="51.35098" lon="3.29241">
        <ele>3.98</ele>
        <time>2018-01-28T12:34:52Z</time>
      </trkpt>
      <trkpt lat="51.351" lon="3.29241">
        <ele>2.06</ele>
        <time>2018-01-28T12:35:08Z</time>
      </trkpt>
      <trkpt lat="51.35107" lon="3.29238">
        <ele>3.5</ele>
        <time>2018-01-28T12:35:19Z</time>
      </trkpt>
      <trkpt lat="51.35112" lon="3.29243">
        <ele>3.02</ele>
        <time>2018-01-28T12:35:59Z</time>
      </trkpt>
      <trkpt lat="51.35103" lon="3.2924">
        <ele>3.02</ele>
        <time>2018-01-28T12:36:29Z</time>
      </trkpt>
      <trkpt lat="51.35111" lon="3.29245">
        <ele>3.02</ele>
        <time>2018-01-28T12:37:06Z</time>
      </trkpt>
      <trkpt lat="51.35115" lon="3.29237">
        <ele>3.5</ele>
        <time>2018-01-28T12:37:45Z</time>
      </trkpt>
      <trkpt lat="51.35118" lon="3.29237">
        <ele>3.02</ele>
        <time>2018-01-28T12:38:19Z</time>
      </trkpt>
      <trkpt lat="51.35116" lon="3.29237">
        <ele>0.62</ele>
        <time>2018-01-28T12:38:22Z</time>
      </trkpt>
      <trkpt lat="51.35112" lon="3.29239">
        <ele>3.02</ele>
        <time>2018-01-28T12:38:31Z</time>
      </trkpt>
      <trkpt lat="51.3511" lon="3.29242">
        <ele>3.02</ele>
        <time>2018-01-28T12:38:50Z</time>
      </trkpt>
      <trkpt lat="51.35101" lon="3.2924">
        <ele>3.02</ele>
        <time>2018-01-28T12:39:28Z</time>
      </trkpt>
      <trkpt lat="51.35103" lon="3.29244">
        <ele>3.5</ele>
        <time>2018-01-28T12:39:54Z</time>
      </trkpt>
      <trkpt lat="51.35101" lon="3.29246">
        <ele>1.58</ele>
        <time>2018-01-28T12:40:29Z</time>
      </trkpt>
      <trkpt lat="51.35101" lon="3.29246">
        <ele>3.5</ele>
        <time>2018-01-28T12:41:02Z</time>
      </trkpt>
      <trkpt lat="51.35102" lon="3.29247">
        <ele>2.06</ele>
        <time>2018-01-28T12:41:31Z</time>
      </trkpt>
      <trkpt lat="51.35102" lon="3.29239">
        <ele>3.02</ele>
        <time>2018-01-28T12:41:40Z</time>
      </trkpt>
      <trkpt lat="51.35099" lon="3.29238">
        <ele>2.06</ele>
        <time>2018-01-28T12:41:48Z</time>
      </trkpt>
      <trkpt lat="51.351" lon="3.29238">
        <ele>2.54</ele>
        <time>2018-01-28T12:42:02Z</time>
      </trkpt>
      <trkpt lat="51.35093" lon="3.29237">
        <ele>3.5</ele>
        <time>2018-01-28T12:42:17Z</time>
      </trkpt>
      <trkpt lat="51.35099" lon="3.29234">
        <ele>2.06</ele>
        <time>2018-01-28T12:42:27Z</time>
      </trkpt>
      <trkpt lat="51.35096" lon="3.29227">
        <ele>1.58</ele>
        <time>2018-01-28T12:42:37Z</time>
      </trkpt>
      <trkpt lat="51.35098" lon="3.29227">
        <ele>3.02</ele>
        <time>2018-01-28T12:42:52Z</time>
      </trkpt>
      <trkpt lat="51.35093" lon="3.29231">
        <ele>3.02</ele>
        <time>2018-01-28T12:43:02Z</time>
      </trkpt>
      <trkpt lat="51.35092" lon="3.29232">
        <ele>2.54</ele>
        <time>2018-01-28T12:43:15Z</time>
      </trkpt>
      <trkpt lat="51.35085" lon="3.29232">
        <ele>2.06</ele>
        <time>2018-01-28T12:43:31Z</time>
      </trkpt>
      <trkpt lat="51.35087" lon="3.29229">
        <ele>-5.63</ele>
        <time>2018-01-28T12:43:44Z</time>
      </trkpt>
      <trkpt lat="51.35087" lon="3.29229">
        <ele>5.42</ele>
        <time>2018-01-28T12:43:46Z</time>
      </trkpt>
      <trkpt lat="51.35089" lon="3.29228">
        <ele>4.94</ele>
        <time>2018-01-28T12:43:54Z</time>
      </trkpt>
      <trkpt lat="51.35092" lon="3.2923">
        <ele>2.54</ele>
        <time>2018-01-28T12:43:56Z</time>
      </trkpt>
      <trkpt lat="51.35105" lon="3.29231">
        <ele>1.1</ele>
        <time>2018-01-28T12:44:08Z</time>
      </trkpt>
      <trkpt lat="51.35111" lon="3.2923">
        <ele>1.1</ele>
        <time>2018-01-28T12:44:22Z</time>
      </trkpt>
      <trkpt lat="51.35105" lon="3.29225">
        <ele>3.02</ele>
        <time>2018-01-28T12:44:32Z</time>
      </trkpt>
      <trkpt lat="51.35104" lon="3.29225">
        <ele>2.06</ele>
        <time>2018-01-28T12:44:34Z</time>
      </trkpt>
      <trkpt lat="51.3509" lon="3.29211">
        <ele>3.02</ele>
        <time>2018-01-28T12:44:50Z</time>
      </trkpt>
      <trkpt lat="51.35087" lon="3.29208">
        <ele>2.54</ele>
        <time>2018-01-28T12:45:03Z</time>
      </trkpt>
      <trkpt lat="51.35093" lon="3.29207">
        <ele>2.54</ele>
        <time>2018-01-28T12:45:21Z</time>
      </trkpt>
      <trkpt lat="51.35093" lon="3.29211">
        <ele>2.54</ele>
        <time>2018-01-28T12:45:26Z</time>
      </trkpt>
      <trkpt lat="51.3509" lon="3.29212">
        <ele>2.54</ele>
        <time>2018-01-28T12:45:35Z</time>
      </trkpt>
      <trkpt lat="51.3509" lon="3.2921">
        <ele>3.02</ele>
        <time>2018-01-28T12:45:48Z</time>
      </trkpt>
      <trkpt lat="51.35082" lon="3.29213">
        <ele>3.02</ele>
        <time>2018-01-28T12:46:01Z</time>
      </trkpt>
      <trkpt lat="51.35079" lon="3.29217">
        <ele>2.06</ele>
        <time>2018-01-28T12:46:22Z</time>
      </trkpt>
      <trkpt lat="51.35073" lon="3.29209">
        <ele>1.58</ele>
        <time>2018-01-28T12:46:35Z</time>
      </trkpt>
      <trkpt lat="51.35068" lon="3.29206">
        <ele>2.54</ele>
        <time>2018-01-28T12:46:47Z</time>
      </trkpt>
      <trkpt lat="51.35062" lon="3.29199">
        <ele>3.02</ele>
        <time>2018-01-28T12:46:59Z</time>
      </trkpt>
      <trkpt lat="51.35061" lon="3.29198">
        <ele>3.02</ele>
        <time>2018-01-28T12:47:00Z</time>
      </trkpt>
      <trkpt lat="51.3506" lon="3.2919">
        <ele>3.02</ele>
        <time>2018-01-28T12:47:02Z</time>
      </trkpt>
      <trkpt lat="51.35058" lon="3.29172">
        <ele>3.02</ele>
        <time>2018-01-28T12:47:09Z</time>
      </trkpt>
      <trkpt lat="51.35064" lon="3.29135">
        <ele>3.5</ele>
        <time>2018-01-28T12:47:25Z</time>
      </trkpt>
      <trkpt lat="51.35067" lon="3.29133">
        <ele>3.5</ele>
        <time>2018-01-28T12:47:27Z</time>
      </trkpt>
      <trkpt lat="51.35071" lon="3.2913">
        <ele>2.06</ele>
        <time>2018-01-28T12:47:30Z</time>
      </trkpt>
      <trkpt lat="51.35086" lon="3.29113">
        <ele>2.06</ele>
        <time>2018-01-28T12:47:46Z</time>
      </trkpt>
      <trkpt lat="51.35094" lon="3.29098">
        <ele>1.58</ele>
        <time>2018-01-28T12:47:58Z</time>
      </trkpt>
      <trkpt lat="51.35104" lon="3.29092">
        <ele>1.58</ele>
        <time>2018-01-28T12:48:08Z</time>
      </trkpt>
      <trkpt lat="51.35106" lon="3.29089">
        <ele>3.02</ele>
        <time>2018-01-28T12:48:10Z</time>
      </trkpt>
      <trkpt lat="51.35108" lon="3.29084">
        <ele>2.54</ele>
        <time>2018-01-28T12:48:13Z</time>
      </trkpt>
      <trkpt lat="51.35116" lon="3.29072">
        <ele>2.54</ele>
        <time>2018-01-28T12:48:26Z</time>
      </trkpt>
      <trkpt lat="51.35124" lon="3.29045">
        <ele>3.02</ele>
        <time>2018-01-28T12:48:38Z</time>
      </trkpt>
      <trkpt lat="51.35132" lon="3.29034">
        <ele>4.46</ele>
        <time>2018-01-28T12:48:45Z</time>
      </trkpt>
      <trkpt lat="51.35135" lon="3.2903">
        <ele>3.02</ele>
        <time>2018-01-28T12:48:49Z</time>
      </trkpt>
      <trkpt lat="51.35148" lon="3.28999">
        <ele>3.02</ele>
        <time>2018-01-28T12:49:04Z</time>
      </trkpt>
      <trkpt lat="51.35152" lon="3.28991">
        <ele>3.98</ele>
        <time>2018-01-28T12:49:09Z</time>
      </trkpt>
      <trkpt lat="51.35157" lon="3.28991">
        <ele>3.98</ele>
        <time>2018-01-28T12:49:15Z</time>
      </trkpt>
      <trkpt lat="51.35171" lon="3.28963">
        <ele>2.06</ele>
        <time>2018-01-28T12:49:31Z</time>
      </trkpt>
      <trkpt lat="51.35186" lon="3.28935">
        <ele>3.5</ele>
        <time>2018-01-28T12:49:47Z</time>
      </trkpt>
      <trkpt lat="51.3519" lon="3.28929">
        <ele>3.5</ele>
        <time>2018-01-28T12:49:50Z</time>
      </trkpt>
      <trkpt lat="51.352" lon="3.28899">
        <ele>2.06</ele>
        <time>2018-01-28T12:50:04Z</time>
      </trkpt>
      <trkpt lat="51.35205" lon="3.28895">
        <ele>3.5</ele>
        <time>2018-01-28T12:50:11Z</time>
      </trkpt>
      <trkpt lat="51.35219" lon="3.28898">
        <ele>3.98</ele>
        <time>2018-01-28T12:50:24Z</time>
      </trkpt>
      <trkpt lat="51.35237" lon="3.2891">
        <ele>3.98</ele>
        <time>2018-01-28T12:50:38Z</time>
      </trkpt>
      <trkpt lat="51.35252" lon="3.2891">
        <ele>3.98</ele>
        <time>2018-01-28T12:50:52Z</time>
      </trkpt>
      <trkpt lat="51.35262" lon="3.28901">
        <ele>4.94</ele>
        <time>2018-01-28T12:51:07Z</time>
      </trkpt>
      <trkpt lat="51.3527" lon="3.28877">
        <ele>5.91</ele>
        <time>2018-01-28T12:51:22Z</time>
      </trkpt>
      <trkpt lat="51.35267" lon="3.28846">
        <ele>3.98</ele>
        <time>2018-01-28T12:51:30Z</time>
      </trkpt>
      <trkpt lat="51.35261" lon="3.28822">
        <ele>3.5</ele>
        <time>2018-01-28T12:51:47Z</time>
      </trkpt>
      <trkpt lat="51.35283" lon="3.28807">
        <ele>4.94</ele>
        <time>2018-01-28T12:52:04Z</time>
      </trkpt>
      <trkpt lat="51.35285" lon="3.28807">
        <ele>4.94</ele>
        <time>2018-01-28T12:52:06Z</time>
      </trkpt>
      <trkpt lat="51.35304" lon="3.28787">
        <ele>5.42</ele>
        <time>2018-01-28T12:52:20Z</time>
      </trkpt>
      <trkpt lat="51.35302" lon="3.28783">
        <ele>5.42</ele>
        <time>2018-01-28T12:52:22Z</time>
      </trkpt>
      <trkpt lat="51.35294" lon="3.28756">
        <ele>5.42</ele>
        <time>2018-01-28T12:52:37Z</time>
      </trkpt>
      <trkpt lat="51.35293" lon="3.28738">
        <ele>5.42</ele>
        <time>2018-01-28T12:52:46Z</time>
      </trkpt>
      <trkpt lat="51.35293" lon="3.28712">
        <ele>5.42</ele>
        <time>2018-01-28T12:53:01Z</time>
      </trkpt>
      <trkpt lat="51.35291" lon="3.28706">
        <ele>5.42</ele>
        <time>2018-01-28T12:53:05Z</time>
      </trkpt>
      <trkpt lat="51.3529" lon="3.287">
        <ele>5.42</ele>
        <time>2018-01-28T12:53:08Z</time>
      </trkpt>
      <trkpt lat="51.35282" lon="3.28675">
        <ele>5.91</ele>
        <time>2018-01-28T12:53:20Z</time>
      </trkpt>
      <trkpt lat="51.35279" lon="3.28658">
        <ele>6.39</ele>
        <time>2018-01-28T12:53:28Z</time>
      </trkpt>
      <trkpt lat="51.35278" lon="3.28653">
        <ele>4.94</ele>
        <time>2018-01-28T12:53:31Z</time>
      </trkpt>
      <trkpt lat="51.35273" lon="3.2864">
        <ele>4.46</ele>
        <time>2018-01-28T12:53:40Z</time>
      </trkpt>
      <trkpt lat="51.35269" lon="3.28631">
        <ele>4.46</ele>
        <time>2018-01-28T12:53:44Z</time>
      </trkpt>
      <trkpt lat="51.35257" lon="3.28611">
        <ele>4.46</ele>
        <time>2018-01-28T12:53:58Z</time>
      </trkpt>
      <trkpt lat="51.35251" lon="3.28599">
        <ele>5.91</ele>
        <time>2018-01-28T12:54:08Z</time>
      </trkpt>
      <trkpt lat="51.35248" lon="3.28593">
        <ele>5.91</ele>
        <time>2018-01-28T12:54:12Z</time>
      </trkpt>
      <trkpt lat="51.35247" lon="3.28588">
        <ele>4.46</ele>
        <time>2018-01-28T12:54:14Z</time>
      </trkpt>
      <trkpt lat="51.35244" lon="3.28581">
        <ele>4.46</ele>
        <time>2018-01-28T12:54:16Z</time>
      </trkpt>
      <trkpt lat="51.35237" lon="3.2857">
        <ele>5.91</ele>
        <time>2018-01-28T12:54:21Z</time>
      </trkpt>
      <trkpt lat="51.35236" lon="3.28568">
        <ele>5.91</ele>
        <time>2018-01-28T12:54:22Z</time>
      </trkpt>
      <trkpt lat="51.35234" lon="3.28564">
        <ele>4.94</ele>
        <time>2018-01-28T12:54:24Z</time>
      </trkpt>
      <trkpt lat="51.35226" lon="3.28551">
        <ele>4.46</ele>
        <time>2018-01-28T12:54:32Z</time>
      </trkpt>
      <trkpt lat="51.35224" lon="3.28543">
        <ele>4.46</ele>
        <time>2018-01-28T12:54:36Z</time>
      </trkpt>
      <trkpt lat="51.35214" lon="3.28522">
        <ele>3.98</ele>
        <time>2018-01-28T12:54:49Z</time>
      </trkpt>
      <trkpt lat="51.35212" lon="3.28512">
        <ele>5.42</ele>
        <time>2018-01-28T12:54:54Z</time>
      </trkpt>
      <trkpt lat="51.35209" lon="3.28504">
        <ele>5.42</ele>
        <time>2018-01-28T12:54:59Z</time>
      </trkpt>
      <trkpt lat="51.35206" lon="3.28497">
        <ele>4.94</ele>
        <time>2018-01-28T12:55:03Z</time>
      </trkpt>
      <trkpt lat="51.35205" lon="3.28492">
        <ele>4.94</ele>
        <time>2018-01-28T12:55:05Z</time>
      </trkpt>
      <trkpt lat="51.35203" lon="3.28484">
        <ele>4.94</ele>
        <time>2018-01-28T12:55:10Z</time>
      </trkpt>
      <trkpt lat="51.35201" lon="3.28466">
        <ele>6.39</ele>
        <time>2018-01-28T12:55:20Z</time>
      </trkpt>
      <trkpt lat="51.35199" lon="3.28463">
        <ele>4.94</ele>
        <time>2018-01-28T12:55:22Z</time>
      </trkpt>
      <trkpt lat="51.35194" lon="3.28454">
        <ele>5.91</ele>
        <time>2018-01-28T12:55:27Z</time>
      </trkpt>
      <trkpt lat="51.35188" lon="3.28441">
        <ele>4.94</ele>
        <time>2018-01-28T12:55:35Z</time>
      </trkpt>
      <trkpt lat="51.35187" lon="3.28437">
        <ele>4.94</ele>
        <time>2018-01-28T12:55:37Z</time>
      </trkpt>
      <trkpt lat="51.35184" lon="3.28429">
        <ele>6.39</ele>
        <time>2018-01-28T12:55:43Z</time>
      </trkpt>
      <trkpt lat="51.35183" lon="3.28427">
        <ele>6.39</ele>
        <time>2018-01-28T12:55:45Z</time>
      </trkpt>
      <trkpt lat="51.35186" lon="3.2841">
        <ele>4.46</ele>
        <time>2018-01-28T12:56:00Z</time>
      </trkpt>
      <trkpt lat="51.35183" lon="3.28408">
        <ele>2.06</ele>
        <time>2018-01-28T12:56:04Z</time>
      </trkpt>
      <trkpt lat="51.35181" lon="3.28409">
        <ele>2.06</ele>
        <time>2018-01-28T12:56:09Z</time>
      </trkpt>
      <trkpt lat="51.35173" lon="3.28398">
        <ele>1.58</ele>
        <time>2018-01-28T12:56:15Z</time>
      </trkpt>
      <trkpt lat="51.35166" lon="3.28388">
        <ele>0.62</ele>
        <time>2018-01-28T12:56:21Z</time>
      </trkpt>
      <trkpt lat="51.3515" lon="3.28378">
        <ele>0.14</ele>
        <time>2018-01-28T12:56:34Z</time>
      </trkpt>
      <trkpt lat="51.35141" lon="3.28373">
        <ele>1.58</ele>
        <time>2018-01-28T12:56:43Z</time>
      </trkpt>
      <trkpt lat="51.3513" lon="3.28365">
        <ele>1.58</ele>
        <time>2018-01-28T12:56:53Z</time>
      </trkpt>
      <trkpt lat="51.35125" lon="3.28362">
        <ele>2.54</ele>
        <time>2018-01-28T12:56:58Z</time>
      </trkpt>
      <trkpt lat="51.35119" lon="3.28359">
        <ele>2.54</ele>
        <time>2018-01-28T12:57:03Z</time>
      </trkpt>
      <trkpt lat="51.35096" lon="3.28344">
        <ele>2.54</ele>
        <time>2018-01-28T12:57:21Z</time>
      </trkpt>
      <trkpt lat="51.35078" lon="3.28335">
        <ele>2.54</ele>
        <time>2018-01-28T12:57:34Z</time>
      </trkpt>
      <trkpt lat="51.35073" lon="3.28332">
        <ele>2.54</ele>
        <time>2018-01-28T12:57:38Z</time>
      </trkpt>
      <trkpt lat="51.35069" lon="3.28325">
        <ele>2.54</ele>
        <time>2018-01-28T12:57:42Z</time>
      </trkpt>
      <trkpt lat="51.35059" lon="3.28307">
        <ele>3.5</ele>
        <time>2018-01-28T12:57:55Z</time>
      </trkpt>
      <trkpt lat="51.35046" lon="3.28277">
        <ele>2.06</ele>
        <time>2018-01-28T12:58:11Z</time>
      </trkpt>
      <trkpt lat="51.35043" lon="3.28271">
        <ele>3.5</ele>
        <time>2018-01-28T12:58:14Z</time>
      </trkpt>
      <trkpt lat="51.35036" lon="3.28259">
        <ele>3.5</ele>
        <time>2018-01-28T12:58:23Z</time>
      </trkpt>
      <trkpt lat="51.35019" lon="3.28241">
        <ele>3.5</ele>
        <time>2018-01-28T12:58:36Z</time>
      </trkpt>
      <trkpt lat="51.35012" lon="3.28223">
        <ele>3.02</ele>
        <time>2018-01-28T12:58:47Z</time>
      </trkpt>
      <trkpt lat="51.35006" lon="3.28198">
        <ele>3.5</ele>
        <time>2018-01-28T12:59:00Z</time>
      </trkpt>
      <trkpt lat="51.35001" lon="3.28182">
        <ele>3.5</ele>
        <time>2018-01-28T12:59:13Z</time>
      </trkpt>
      <trkpt lat="51.35" lon="3.2818">
        <ele>3.5</ele>
        <time>2018-01-28T12:59:14Z</time>
      </trkpt>
      <trkpt lat="51.35006" lon="3.28165">
        <ele>2.06</ele>
        <time>2018-01-28T12:59:21Z</time>
      </trkpt>
      <trkpt lat="51.35003" lon="3.28164">
        <ele>1.58</ele>
        <time>2018-01-28T12:59:26Z</time>
      </trkpt>
      <trkpt lat="51.34998" lon="3.28166">
        <ele>3.02</ele>
        <time>2018-01-28T12:59:32Z</time>
      </trkpt>
      <trkpt lat="51.34984" lon="3.28155">
        <ele>3.02</ele>
        <time>2018-01-28T12:59:41Z</time>
      </trkpt>
      <trkpt lat="51.34963" lon="3.2817">
        <ele>2.54</ele>
        <time>2018-01-28T13:00:00Z</time>
      </trkpt>
      <trkpt lat="51.34949" lon="3.28192">
        <ele>1.58</ele>
        <time>2018-01-28T13:00:15Z</time>
      </trkpt>
      <trkpt lat="51.3494" lon="3.28212">
        <ele>1.1</ele>
        <time>2018-01-28T13:00:29Z</time>
      </trkpt>
      <trkpt lat="51.34929" lon="3.28255">
        <ele>0.62</ele>
        <time>2018-01-28T13:00:44Z</time>
      </trkpt>
      <trkpt lat="51.3492" lon="3.28272">
        <ele>0.62</ele>
        <time>2018-01-28T13:00:57Z</time>
      </trkpt>
      <trkpt lat="51.34915" lon="3.28278">
        <ele>2.06</ele>
        <time>2018-01-28T13:01:01Z</time>
      </trkpt>
      <trkpt lat="51.34905" lon="3.28295">
        <ele>0.62</ele>
        <time>2018-01-28T13:01:15Z</time>
      </trkpt>
      <trkpt lat="51.3489" lon="3.28318">
        <ele>0.14</ele>
        <time>2018-01-28T13:01:29Z</time>
      </trkpt>
      <trkpt lat="51.34877" lon="3.28342">
        <ele>0.14</ele>
        <time>2018-01-28T13:01:44Z</time>
      </trkpt>
      <trkpt lat="51.34864" lon="3.28355">
        <ele>0.14</ele>
        <time>2018-01-28T13:01:56Z</time>
      </trkpt>
      <trkpt lat="51.34853" lon="3.28343">
        <ele>0.14</ele>
        <time>2018-01-28T13:02:07Z</time>
      </trkpt>
      <trkpt lat="51.34846" lon="3.2834">
        <ele>0.14</ele>
        <time>2018-01-28T13:02:12Z</time>
      </trkpt>
      <trkpt lat="51.3484" lon="3.2834">
        <ele>0.14</ele>
        <time>2018-01-28T13:02:17Z</time>
      </trkpt>
      <trkpt lat="51.34826" lon="3.28335">
        <ele>-0.34</ele>
        <time>2018-01-28T13:02:30Z</time>
      </trkpt>
      <trkpt lat="51.34815" lon="3.28336">
        <ele>-0.34</ele>
        <time>2018-01-28T13:02:39Z</time>
      </trkpt>
      <trkpt lat="51.34798" lon="3.28337">
        <ele>-0.34</ele>
        <time>2018-01-28T13:02:51Z</time>
      </trkpt>
      <trkpt lat="51.34781" lon="3.28335">
        <ele>-0.34</ele>
        <time>2018-01-28T13:03:05Z</time>
      </trkpt>
      <trkpt lat="51.3476" lon="3.28335">
        <ele>-0.82</ele>
        <time>2018-01-28T13:03:20Z</time>
      </trkpt>
      <trkpt lat="51.34741" lon="3.28333">
        <ele>-1.3</ele>
        <time>2018-01-28T13:03:35Z</time>
      </trkpt>
      <trkpt lat="51.34737" lon="3.28332">
        <ele>-1.3</ele>
        <time>2018-01-28T13:03:39Z</time>
      </trkpt>
      <trkpt lat="51.34719" lon="3.2833">
        <ele>-1.3</ele>
        <time>2018-01-28T13:03:54Z</time>
      </trkpt>
      <trkpt lat="51.347" lon="3.2833">
        <ele>-1.3</ele>
        <time>2018-01-28T13:04:07Z</time>
      </trkpt>
      <trkpt lat="51.34696" lon="3.2833">
        <ele>-1.3</ele>
        <time>2018-01-28T13:04:10Z</time>
      </trkpt>
      <trkpt lat="51.34682" lon="3.28323">
        <ele>-1.3</ele>
        <time>2018-01-28T13:04:23Z</time>
      </trkpt>
      <trkpt lat="51.34666" lon="3.28323">
        <ele>-1.3</ele>
        <time>2018-01-28T13:04:36Z</time>
      </trkpt>
      <trkpt lat="51.34658" lon="3.28323">
        <ele>-1.3</ele>
        <time>2018-01-28T13:04:42Z</time>
      </trkpt>
      <trkpt lat="51.34653" lon="3.28322">
        <ele>-1.79</ele>
        <time>2018-01-28T13:04:46Z</time>
      </trkpt>
      <trkpt lat="51.3464" lon="3.28335">
        <ele>-2.27</ele>
        <time>2018-01-28T13:05:00Z</time>
      </trkpt>
      <trkpt lat="51.34627" lon="3.28352">
        <ele>-3.71</ele>
        <time>2018-01-28T13:05:13Z</time>
      </trkpt>
      <trkpt lat="51.34608" lon="3.28376">
        <ele>-3.71</ele>
        <time>2018-01-28T13:05:30Z</time>
      </trkpt>
      <trkpt lat="51.34588" lon="3.28388">
        <ele>-2.27</ele>
        <time>2018-01-28T13:05:46Z</time>
      </trkpt>
      <trkpt lat="51.34567" lon="3.28393">
        <ele>-2.27</ele>
        <time>2018-01-28T13:06:01Z</time>
      </trkpt>
      <trkpt lat="51.34548" lon="3.28395">
        <ele>-1.79</ele>
        <time>2018-01-28T13:06:15Z</time>
      </trkpt>
      <trkpt lat="51.34528" lon="3.2839">
        <ele>-1.79</ele>
        <time>2018-01-28T13:06:31Z</time>
      </trkpt>
      <trkpt lat="51.34514" lon="3.28393">
        <ele>-1.3</ele>
        <time>2018-01-28T13:06:45Z</time>
      </trkpt>
      <trkpt lat="51.34504" lon="3.28401">
        <ele>-2.75</ele>
        <time>2018-01-28T13:06:55Z</time>
      </trkpt>
      <trkpt lat="51.34489" lon="3.284">
        <ele>-2.75</ele>
        <time>2018-01-28T13:07:07Z</time>
      </trkpt>
      <trkpt lat="51.3448" lon="3.28397">
        <ele>-1.3</ele>
        <time>2018-01-28T13:07:14Z</time>
      </trkpt>
      <trkpt lat="51.34477" lon="3.28376">
        <ele>-0.82</ele>
        <time>2018-01-28T13:07:25Z</time>
      </trkpt>
      <trkpt lat="51.34474" lon="3.28365">
        <ele>-0.82</ele>
        <time>2018-01-28T13:07:32Z</time>
      </trkpt>
      <trkpt lat="51.34453" lon="3.28358">
        <ele>-0.82</ele>
        <time>2018-01-28T13:07:47Z</time>
      </trkpt>
      <trkpt lat="51.34436" lon="3.28353">
        <ele>-1.3</ele>
        <time>2018-01-28T13:08:01Z</time>
      </trkpt>
      <trkpt lat="51.3442" lon="3.28354">
        <ele>-1.3</ele>
        <time>2018-01-28T13:08:15Z</time>
      </trkpt>
      <trkpt lat="51.34416" lon="3.28356">
        <ele>-1.3</ele>
        <time>2018-01-28T13:08:18Z</time>
      </trkpt>
      <trkpt lat="51.34397" lon="3.28361">
        <ele>-1.3</ele>
        <time>2018-01-28T13:08:32Z</time>
      </trkpt>
      <trkpt lat="51.34377" lon="3.28367">
        <ele>-1.3</ele>
        <time>2018-01-28T13:08:46Z</time>
      </trkpt>
      <trkpt lat="51.34361" lon="3.28368">
        <ele>-1.3</ele>
        <time>2018-01-28T13:08:59Z</time>
      </trkpt>
      <trkpt lat="51.34348" lon="3.2837">
        <ele>-1.79</ele>
        <time>2018-01-28T13:09:09Z</time>
      </trkpt>
      <trkpt lat="51.34328" lon="3.28374">
        <ele>-1.79</ele>
        <time>2018-01-28T13:09:24Z</time>
      </trkpt>
      <trkpt lat="51.34307" lon="3.28379">
        <ele>-1.79</ele>
        <time>2018-01-28T13:09:40Z</time>
      </trkpt>
      <trkpt lat="51.34289" lon="3.28385">
        <ele>-0.82</ele>
        <time>2018-01-28T13:09:54Z</time>
      </trkpt>
      <trkpt lat="51.34277" lon="3.28391">
        <ele>-0.82</ele>
        <time>2018-01-28T13:10:05Z</time>
      </trkpt>
      <trkpt lat="51.34274" lon="3.28392">
        <ele>-0.82</ele>
        <time>2018-01-28T13:10:07Z</time>
      </trkpt>
      <trkpt lat="51.3427" lon="3.28402">
        <ele>-0.82</ele>
        <time>2018-01-28T13:10:15Z</time>
      </trkpt>
      <trkpt lat="51.34274" lon="3.2843">
        <ele>-0.82</ele>
        <time>2018-01-28T13:10:30Z</time>
      </trkpt>
      <trkpt lat="51.34269" lon="3.28451">
        <ele>-0.34</ele>
        <time>2018-01-28T13:10:40Z</time>
      </trkpt>
      <trkpt lat="51.34245" lon="3.28459">
        <ele>-0.34</ele>
        <time>2018-01-28T13:10:56Z</time>
      </trkpt>
      <trkpt lat="51.3424" lon="3.28457">
        <ele>-1.79</ele>
        <time>2018-01-28T13:10:59Z</time>
      </trkpt>
      <trkpt lat="51.3422" lon="3.28472">
        <ele>-1.79</ele>
        <time>2018-01-28T13:11:15Z</time>
      </trkpt>
      <trkpt lat="51.34209" lon="3.28489">
        <ele>-2.27</ele>
        <time>2018-01-28T13:11:27Z</time>
      </trkpt>
      <trkpt lat="51.34191" lon="3.28507">
        <ele>-2.27</ele>
        <time>2018-01-28T13:11:43Z</time>
      </trkpt>
      <trkpt lat="51.34192" lon="3.28535">
        <ele>-3.23</ele>
        <time>2018-01-28T13:11:57Z</time>
      </trkpt>
      <trkpt lat="51.34192" lon="3.28541">
        <ele>-3.23</ele>
        <time>2018-01-28T13:11:59Z</time>
      </trkpt>
      <trkpt lat="51.34188" lon="3.28569">
        <ele>-3.23</ele>
        <time>2018-01-28T13:12:12Z</time>
      </trkpt>
      <trkpt lat="51.34174" lon="3.28575">
        <ele>-3.23</ele>
        <time>2018-01-28T13:12:26Z</time>
      </trkpt>
      <trkpt lat="51.34161" lon="3.2858">
        <ele>-3.23</ele>
        <time>2018-01-28T13:12:38Z</time>
      </trkpt>
      <trkpt lat="51.34149" lon="3.28589">
        <ele>-3.23</ele>
        <time>2018-01-28T13:12:51Z</time>
      </trkpt>
      <trkpt lat="51.34147" lon="3.2859">
        <ele>-3.23</ele>
        <time>2018-01-28T13:12:53Z</time>
      </trkpt>
      <trkpt lat="51.34126" lon="3.28614">
        <ele>-3.23</ele>
        <time>2018-01-28T13:13:07Z</time>
      </trkpt>
      <trkpt lat="51.34118" lon="3.28636">
        <ele>-3.23</ele>
        <time>2018-01-28T13:13:20Z</time>
      </trkpt>
      <trkpt lat="51.34117" lon="3.2864">
        <ele>-3.23</ele>
        <time>2018-01-28T13:13:22Z</time>
      </trkpt>
      <trkpt lat="51.34117" lon="3.28658">
        <ele>-3.23</ele>
        <time>2018-01-28T13:13:32Z</time>
      </trkpt>
      <trkpt lat="51.34129" lon="3.28685">
        <ele>-2.27</ele>
        <time>2018-01-28T13:13:48Z</time>
      </trkpt>
      <trkpt lat="51.34134" lon="3.28696">
        <ele>-2.27</ele>
        <time>2018-01-28T13:13:56Z</time>
      </trkpt>
      <trkpt lat="51.34144" lon="3.28727">
        <ele>-3.23</ele>
        <time>2018-01-28T13:14:12Z</time>
      </trkpt>
      <trkpt lat="51.34143" lon="3.28733">
        <ele>-3.23</ele>
        <time>2018-01-28T13:14:15Z</time>
      </trkpt>
      <trkpt lat="51.34143" lon="3.28737">
        <ele>-3.23</ele>
        <time>2018-01-28T13:14:17Z</time>
      </trkpt>
      <trkpt lat="51.34136" lon="3.2874">
        <ele>-3.23</ele>
        <time>2018-01-28T13:14:23Z</time>
      </trkpt>
      <trkpt lat="51.34132" lon="3.28739">
        <ele>-3.23</ele>
        <time>2018-01-28T13:14:26Z</time>
      </trkpt>
      <trkpt lat="51.34116" lon="3.28728">
        <ele>-3.23</ele>
        <time>2018-01-28T13:14:40Z</time>
      </trkpt>
      <trkpt lat="51.34109" lon="3.28728">
        <ele>-2.27</ele>
        <time>2018-01-28T13:14:49Z</time>
      </trkpt>
      <trkpt lat="51.3411" lon="3.28748">
        <ele>-0.82</ele>
        <time>2018-01-28T13:14:59Z</time>
      </trkpt>
      <trkpt lat="51.34111" lon="3.28788">
        <ele>-0.82</ele>
        <time>2018-01-28T13:15:17Z</time>
      </trkpt>
      <trkpt lat="51.34107" lon="3.28813">
        <ele>-0.82</ele>
        <time>2018-01-28T13:15:31Z</time>
      </trkpt>
      <trkpt lat="51.34099" lon="3.28837">
        <ele>-0.82</ele>
        <time>2018-01-28T13:15:42Z</time>
      </trkpt>
      <trkpt lat="51.34099" lon="3.28844">
        <ele>-2.27</ele>
        <time>2018-01-28T13:15:45Z</time>
      </trkpt>
      <trkpt lat="51.34099" lon="3.28863">
        <ele>-1.79</ele>
        <time>2018-01-28T13:15:53Z</time>
      </trkpt>
      <trkpt lat="51.34092" lon="3.28897">
        <ele>-1.79</ele>
        <time>2018-01-28T13:16:09Z</time>
      </trkpt>
      <trkpt lat="51.34089" lon="3.28919">
        <ele>-1.79</ele>
        <time>2018-01-28T13:16:21Z</time>
      </trkpt>
      <trkpt lat="51.34086" lon="3.28944">
        <ele>-1.79</ele>
        <time>2018-01-28T13:16:35Z</time>
      </trkpt>
      <trkpt lat="51.34082" lon="3.28978">
        <ele>-2.27</ele>
        <time>2018-01-28T13:16:50Z</time>
      </trkpt>
      <trkpt lat="51.34084" lon="3.28984">
        <ele>-2.27</ele>
        <time>2018-01-28T13:16:53Z</time>
      </trkpt>
      <trkpt lat="51.3408" lon="3.29003">
        <ele>-2.27</ele>
        <time>2018-01-28T13:17:03Z</time>
      </trkpt>
      <trkpt lat="51.3408" lon="3.29013">
        <ele>-2.27</ele>
        <time>2018-01-28T13:17:07Z</time>
      </trkpt>
      <trkpt lat="51.34105" lon="3.29041">
        <ele>-2.75</ele>
        <time>2018-01-28T13:17:22Z</time>
      </trkpt>
      <trkpt lat="51.34104" lon="3.29044">
        <ele>-2.75</ele>
        <time>2018-01-28T13:17:23Z</time>
      </trkpt>
      <trkpt lat="51.34099" lon="3.29067">
        <ele>-2.75</ele>
        <time>2018-01-28T13:17:34Z</time>
      </trkpt>
      <trkpt lat="51.34091" lon="3.29078">
        <ele>-3.23</ele>
        <time>2018-01-28T13:17:38Z</time>
      </trkpt>
      <trkpt lat="51.34078" lon="3.29109">
        <ele>-3.23</ele>
        <time>2018-01-28T13:17:53Z</time>
      </trkpt>
      <trkpt lat="51.34082" lon="3.29131">
        <ele>-3.23</ele>
        <time>2018-01-28T13:18:05Z</time>
      </trkpt>
      <trkpt lat="51.3408" lon="3.29155">
        <ele>-3.23</ele>
        <time>2018-01-28T13:18:14Z</time>
      </trkpt>
      <trkpt lat="51.34081" lon="3.29164">
        <ele>-3.23</ele>
        <time>2018-01-28T13:18:17Z</time>
      </trkpt>
      <trkpt lat="51.34089" lon="3.29197">
        <ele>-3.23</ele>
        <time>2018-01-28T13:18:31Z</time>
      </trkpt>
      <trkpt lat="51.34075" lon="3.29226">
        <ele>-3.23</ele>
        <time>2018-01-28T13:18:44Z</time>
      </trkpt>
      <trkpt lat="51.34069" lon="3.29235">
        <ele>-3.71</ele>
        <time>2018-01-28T13:18:49Z</time>
      </trkpt>
      <trkpt lat="51.34051" lon="3.29253">
        <ele>-3.71</ele>
        <time>2018-01-28T13:19:03Z</time>
      </trkpt>
      <trkpt lat="51.34028" lon="3.2927">
        <ele>-3.23</ele>
        <time>2018-01-28T13:19:20Z</time>
      </trkpt>
      <trkpt lat="51.34006" lon="3.29276">
        <ele>-3.23</ele>
        <time>2018-01-28T13:19:36Z</time>
      </trkpt>
      <trkpt lat="51.33982" lon="3.29281">
        <ele>-3.23</ele>
        <time>2018-01-28T13:19:55Z</time>
      </trkpt>
      <trkpt lat="51.33958" lon="3.29288">
        <ele>-3.23</ele>
        <time>2018-01-28T13:20:13Z</time>
      </trkpt>
      <trkpt lat="51.33934" lon="3.29297">
        <ele>-3.23</ele>
        <time>2018-01-28T13:20:31Z</time>
      </trkpt>
      <trkpt lat="51.33922" lon="3.29316">
        <ele>-3.71</ele>
        <time>2018-01-28T13:20:47Z</time>
      </trkpt>
      <trkpt lat="51.33921" lon="3.29319">
        <ele>-3.71</ele>
        <time>2018-01-28T13:20:49Z</time>
      </trkpt>
      <trkpt lat="51.33915" lon="3.29337">
        <ele>-3.71</ele>
        <time>2018-01-28T13:20:59Z</time>
      </trkpt>
      <trkpt lat="51.33913" lon="3.29369">
        <ele>-4.19</ele>
        <time>2018-01-28T13:21:16Z</time>
      </trkpt>
      <trkpt lat="51.3391" lon="3.29384">
        <ele>-2.75</ele>
        <time>2018-01-28T13:21:24Z</time>
      </trkpt>
      <trkpt lat="51.33909" lon="3.29391">
        <ele>-1.79</ele>
        <time>2018-01-28T13:21:27Z</time>
      </trkpt>
      <trkpt lat="51.33908" lon="3.29394">
        <ele>-3.71</ele>
        <time>2018-01-28T13:21:29Z</time>
      </trkpt>
      <trkpt lat="51.33903" lon="3.29409">
        <ele>-2.27</ele>
        <time>2018-01-28T13:21:37Z</time>
      </trkpt>
      <trkpt lat="51.33888" lon="3.29409">
        <ele>-4.19</ele>
        <time>2018-01-28T13:21:49Z</time>
      </trkpt>
      <trkpt lat="51.3388" lon="3.29411">
        <ele>-2.75</ele>
        <time>2018-01-28T13:21:54Z</time>
      </trkpt>
      <trkpt lat="51.33857" lon="3.29413">
        <ele>-4.19</ele>
        <time>2018-01-28T13:22:11Z</time>
      </trkpt>
      <trkpt lat="51.33837" lon="3.29411">
        <ele>-2.27</ele>
        <time>2018-01-28T13:22:26Z</time>
      </trkpt>
      <trkpt lat="51.33833" lon="3.2941">
        <ele>-3.71</ele>
        <time>2018-01-28T13:22:30Z</time>
      </trkpt>
      <trkpt lat="51.33828" lon="3.29411">
        <ele>-3.71</ele>
        <time>2018-01-28T13:22:34Z</time>
      </trkpt>
      <trkpt lat="51.33812" lon="3.29417">
        <ele>-3.71</ele>
        <time>2018-01-28T13:22:47Z</time>
      </trkpt>
      <trkpt lat="51.33807" lon="3.29419">
        <ele>-3.71</ele>
        <time>2018-01-28T13:22:51Z</time>
      </trkpt>
      <trkpt lat="51.33795" lon="3.29419">
        <ele>-3.71</ele>
        <time>2018-01-28T13:23:01Z</time>
      </trkpt>
      <trkpt lat="51.33796" lon="3.29425">
        <ele>-3.71</ele>
        <time>2018-01-28T13:23:04Z</time>
      </trkpt>
      <trkpt lat="51.33802" lon="3.29442">
        <ele>-3.71</ele>
        <time>2018-01-28T13:23:16Z</time>
      </trkpt>
      <trkpt lat="51.33806" lon="3.29454">
        <ele>-3.71</ele>
        <time>2018-01-28T13:23:30Z</time>
      </trkpt>
      <trkpt lat="51.33801" lon="3.29445">
        <ele>-3.71</ele>
        <time>2018-01-28T13:23:53Z</time>
      </trkpt>
      <trkpt lat="51.33797" lon="3.29467">
        <ele>-3.71</ele>
        <time>2018-01-28T13:24:13Z</time>
      </trkpt>
      <trkpt lat="51.33795" lon="3.29478">
        <ele>-4.19</ele>
        <time>2018-01-28T13:24:34Z</time>
      </trkpt>
      <trkpt lat="51.33796" lon="3.29477">
        <ele>-3.23</ele>
        <time>2018-01-28T13:24:37Z</time>
      </trkpt>
      <trkpt lat="51.33796" lon="3.29491">
        <ele>-3.23</ele>
        <time>2018-01-28T13:24:57Z</time>
      </trkpt>
      <trkpt lat="51.33814" lon="3.29496">
        <ele>-2.75</ele>
        <time>2018-01-28T13:25:22Z</time>
      </trkpt>
      <trkpt lat="51.33819" lon="3.29496">
        <ele>-3.71</ele>
        <time>2018-01-28T13:25:24Z</time>
      </trkpt>
      <trkpt lat="51.33823" lon="3.295">
        <ele>-3.71</ele>
        <time>2018-01-28T13:25:41Z</time>
      </trkpt>
      <trkpt lat="51.33819" lon="3.29489">
        <ele>-3.71</ele>
        <time>2018-01-28T13:26:08Z</time>
      </trkpt>
      <trkpt lat="51.33823" lon="3.29497">
        <ele>-3.71</ele>
        <time>2018-01-28T13:26:35Z</time>
      </trkpt>
      <trkpt lat="51.33816" lon="3.29491">
        <ele>-4.67</ele>
        <time>2018-01-28T13:26:57Z</time>
      </trkpt>
      <trkpt lat="51.33815" lon="3.29492">
        <ele>-3.23</ele>
        <time>2018-01-28T13:27:04Z</time>
      </trkpt>
      <trkpt lat="51.33813" lon="3.2948">
        <ele>-3.23</ele>
        <time>2018-01-28T13:27:29Z</time>
      </trkpt>
      <trkpt lat="51.33813" lon="3.29485">
        <ele>-3.23</ele>
        <time>2018-01-28T13:27:56Z</time>
      </trkpt>
      <trkpt lat="51.33807" lon="3.29475">
        <ele>-3.71</ele>
        <time>2018-01-28T13:28:16Z</time>
      </trkpt>
      <trkpt lat="51.33818" lon="3.29455">
        <ele>-3.71</ele>
        <time>2018-01-28T13:28:42Z</time>
      </trkpt>
      <trkpt lat="51.33803" lon="3.29449">
        <ele>-3.71</ele>
        <time>2018-01-28T13:29:00Z</time>
      </trkpt>
      <trkpt lat="51.3379" lon="3.29453">
        <ele>-3.71</ele>
        <time>2018-01-28T13:29:16Z</time>
      </trkpt>
      <trkpt lat="51.3379" lon="3.29447">
        <ele>-2.75</ele>
        <time>2018-01-28T13:29:22Z</time>
      </trkpt>
      <trkpt lat="51.33797" lon="3.2945">
        <ele>-4.19</ele>
        <time>2018-01-28T13:29:47Z</time>
      </trkpt>
      <trkpt lat="51.33796" lon="3.29473">
        <ele>-3.23</ele>
        <time>2018-01-28T13:30:13Z</time>
      </trkpt>
      <trkpt lat="51.33802" lon="3.29468">
        <ele>-3.23</ele>
        <time>2018-01-28T13:30:36Z</time>
      </trkpt>
      <trkpt lat="51.33803" lon="3.2948">
        <ele>-3.23</ele>
        <time>2018-01-28T13:31:02Z</time>
      </trkpt>
      <trkpt lat="51.33802" lon="3.29487">
        <ele>-3.23</ele>
        <time>2018-01-28T13:31:29Z</time>
      </trkpt>
      <trkpt lat="51.33805" lon="3.29486">
        <ele>-2.75</ele>
        <time>2018-01-28T13:31:53Z</time>
      </trkpt>
      <trkpt lat="51.33806" lon="3.29478">
        <ele>-3.71</ele>
        <time>2018-01-28T13:32:07Z</time>
      </trkpt>
    </trkseg>
  </trk>
</gpx>